Wetterdaten: Samstag, 08.11.2014
Datum Zeit Temp. Aussen +5cm Feuchte Auss Luftdruck Regen Sonnenschein Regendauer Solar Windben
08.11.2014 00:00 6,8 C 5,0 C 95 % 1006,4 hPa 0,0 l/m 0 min 0 min 0 W/m 10,5 km/h (2 Bft)
08.11.2014 00:02 6,8 C 5,0 C 95 % 1006,4 hPa 0,0 l/m 0 min 0 min 0 W/m 10,5 km/h (2 Bft)
08.11.2014 00:05 6,8 C 5,0 C 95 % 1006,4 hPa 0,0 l/m 0 min 0 min 0 W/m 10,5 km/h (2 Bft)
08.11.2014 00:06 6,8 C 5,0 C 95 % 1006,5 hPa 0,0 l/m 0 min 0 min 0 W/m 10,5 km/h (2 Bft)
08.11.2014 00:08 6,8 C 5,0 C 95 % 1006,5 hPa 0,0 l/m 0 min 0 min 0 W/m 14,6 km/h (3 Bft)
08.11.2014 00:10 6,8 C 5,0 C 95 % 1006,6 hPa 0,0 l/m 0 min 0 min 0 W/m 12,6 km/h (3 Bft)
08.11.2014 00:12 6,8 C 5,0 C 95 % 1006,6 hPa 0,0 l/m 0 min 0 min 0 W/m 10,5 km/h (2 Bft)
08.11.2014 00:14 6,8 C 5,0 C 95 % 1006,6 hPa 0,0 l/m 0 min 0 min 0 W/m 14,6 km/h (3 Bft)
08.11.2014 00:16 6,8 C 5,0 C 95 % 1006,6 hPa 0,0 l/m 0 min 0 min 0 W/m 12,6 km/h (3 Bft)
08.11.2014 00:18 6,8 C 5,0 C 95 % 1006,6 hPa 0,0 l/m 0 min 0 min 0 W/m 14,6 km/h (3 Bft)
08.11.2014 00:20 6,8 C 5,0 C 95 % 1006,6 hPa 0,0 l/m 0 min 0 min 0 W/m 18,8 km/h (3 Bft)
08.11.2014 00:22 6,7 C 5,0 C 95 % 1006,7 hPa 0,0 l/m 0 min 0 min 0 W/m 10,5 km/h (2 Bft)
08.11.2014 00:24 6,8 C 5,0 C 95 % 1006,7 hPa 0,0 l/m 0 min 0 min 0 W/m 12,6 km/h (3 Bft)
08.11.2014 00:26 6,8 C 5,0 C 95 % 1006,7 hPa 0,0 l/m 0 min 0 min 0 W/m 14,6 km/h (3 Bft)
08.11.2014 00:28 6,8 C 5,0 C 95 % 1006,7 hPa 0,0 l/m 0 min 0 min 0 W/m 10,5 km/h (2 Bft)
08.11.2014 00:30 6,8 C 5,0 C 95 % 1006,7 hPa 0,0 l/m 0 min 0 min 0 W/m 12,6 km/h (3 Bft)
08.11.2014 00:32 6,8 C 5,0 C 95 % 1006,7 hPa 0,0 l/m 0 min 0 min 0 W/m 14,6 km/h (3 Bft)
08.11.2014 00:34 6,8 C 5,0 C 95 % 1006,7 hPa 0,0 l/m 0 min 0 min 0 W/m 18,8 km/h (3 Bft)
08.11.2014 00:36 6,8 C 5,0 C 95 % 1006,7 hPa 0,0 l/m 0 min 0 min 0 W/m 12,6 km/h (3 Bft)
08.11.2014 00:38 6,8 C 5,0 C 95 % 1006,7 hPa 0,0 l/m 0 min 0 min 0 W/m 14,6 km/h (3 Bft)
08.11.2014 00:40 6,8 C 5,0 C 95 % 1006,8 hPa 0,0 l/m 0 min 0 min 0 W/m 14,6 km/h (3 Bft)
08.11.2014 00:42 6,8 C 5,0 C 95 % 1006,8 hPa 0,0 l/m 0 min 0 min 0 W/m 10,5 km/h (2 Bft)
08.11.2014 00:44 6,8 C 5,0 C 95 % 1006,7 hPa 0,0 l/m 0 min 0 min 0 W/m 14,6 km/h (3 Bft)
08.11.2014 00:46 6,8 C 5,0 C 95 % 1006,8 hPa 0,0 l/m 0 min 0 min 0 W/m 12,6 km/h (3 Bft)
08.11.2014 00:48 6,8 C 5,0 C 95 % 1006,8 hPa 0,0 l/m 0 min 0 min 0 W/m 12,6 km/h (3 Bft)
08.11.2014 00:50 6,8 C 5,0 C 95 % 1006,7 hPa 0,0 l/m 0 min 0 min 0 W/m 10,5 km/h (2 Bft)
08.11.2014 00:52 6,8 C 5,0 C 95 % 1006,8 hPa 0,0 l/m 0 min 0 min 0 W/m 10,5 km/h (2 Bft)
08.11.2014 00:54 6,8 C 5,0 C 95 % 1006,8 hPa 0,0 l/m 0 min 0 min 0 W/m 14,6 km/h (3 Bft)
08.11.2014 00:56 6,8 C 5,0 C 95 % 1006,8 hPa 0,0 l/m 0 min 0 min 0 W/m 12,6 km/h (3 Bft)
08.11.2014 00:58 6,8 C 5,0 C 95 % 1006,8 hPa 0,0 l/m 0 min 0 min 0 W/m 14,6 km/h (3 Bft)
08.11.2014 01:00 6,8 C 5,0 C 95 % 1006,8 hPa 0,0 l/m 0 min 0 min 0 W/m 12,6 km/h (3 Bft)
08.11.2014 01:02 6,8 C 5,0 C 95 % 1006,9 hPa 0,0 l/m 0 min 0 min 0 W/m 14,6 km/h (3 Bft)
08.11.2014 01:04 6,8 C 5,0 C 95 % 1006,8 hPa 0,0 l/m 0 min 0 min 0 W/m 12,6 km/h (3 Bft)
08.11.2014 01:06 6,8 C 5,0 C 95 % 1006,8 hPa 0,0 l/m 0 min 0 min 0 W/m 16,7 km/h (3 Bft)
08.11.2014 01:08 6,8 C 5,0 C 95 % 1006,9 hPa 0,0 l/m 0 min 0 min 0 W/m 14,6 km/h (3 Bft)
08.11.2014 01:10 6,8 C 5,0 C 95 % 1006,9 hPa 0,0 l/m 0 min 0 min 0 W/m 14,6 km/h (3 Bft)
08.11.2014 01:12 6,8 C 5,0 C 95 % 1006,9 hPa 0,0 l/m 0 min 0 min 0 W/m 10,5 km/h (2 Bft)
08.11.2014 01:14 6,8 C 5,0 C 95 % 1006,8 hPa 0,0 l/m 0 min 0 min 0 W/m 10,5 km/h (2 Bft)
08.11.2014 01:16 6,9 C 5,0 C 95 % 1006,8 hPa 0,0 l/m 0 min 0 min 0 W/m 16,7 km/h (3 Bft)
08.11.2014 01:18 6,9 C 5,0 C 95 % 1006,8 hPa 0,0 l/m 0 min 0 min 0 W/m 10,5 km/h (2 Bft)
08.11.2014 01:20 6,9 C 5,0 C 95 % 1006,8 hPa 0,0 l/m 0 min 0 min 0 W/m 14,6 km/h (3 Bft)
08.11.2014 01:22 6,9 C 5,0 C 95 % 1006,9 hPa 0,0 l/m 0 min 0 min 0 W/m 10,5 km/h (2 Bft)
08.11.2014 01:24 6,9 C 5,0 C 95 % 1006,9 hPa 0,0 l/m 0 min 0 min 0 W/m 12,6 km/h (3 Bft)
08.11.2014 01:26 6,9 C 5,0 C 95 % 1007,0 hPa 0,0 l/m 0 min 0 min 0 W/m 14,6 km/h (3 Bft)
08.11.2014 01:28 6,9 C 5,0 C 95 % 1007,0 hPa 0,0 l/m 0 min 0 min 0 W/m 12,6 km/h (3 Bft)
08.11.2014 01:30 6,9 C 5,0 C 95 % 1007,1 hPa 0,0 l/m 0 min 0 min 0 W/m 12,6 km/h (3 Bft)
08.11.2014 01:32 6,9 C 5,0 C 95 % 1007,1 hPa 0,0 l/m 0 min 0 min 0 W/m 12,6 km/h (3 Bft)
08.11.2014 01:34 6,9 C 5,0 C 95 % 1007,0 hPa 0,0 l/m 0 min 0 min 0 W/m 10,5 km/h (2 Bft)
08.11.2014 01:36 6,9 C 5,0 C 95 % 1007,0 hPa 0,0 l/m 0 min 0 min 0 W/m 12,6 km/h (3 Bft)
08.11.2014 01:38 6,9 C 5,0 C 95 % 1007,0 hPa 0,0 l/m 0 min 0 min 0 W/m 12,6 km/h (3 Bft)
08.11.2014 01:40 6,9 C 5,0 C 95 % 1007,0 hPa 0,0 l/m 0 min 0 min 0 W/m 12,6 km/h (3 Bft)
08.11.2014 01:42 6,9 C 5,0 C 95 % 1007,1 hPa 0,0 l/m 0 min 0 min 0 W/m 10,5 km/h (2 Bft)
08.11.2014 01:44 6,8 C 5,0 C 95 % 1007,1 hPa 0,0 l/m 0 min 0 min 0 W/m 10,5 km/h (2 Bft)
08.11.2014 01:46 6,8 C 5,0 C 95 % 1007,1 hPa 0,0 l/m 0 min 0 min 0 W/m 12,6 km/h (3 Bft)
08.11.2014 01:48 6,8 C 5,0 C 95 % 1007,0 hPa 0,0 l/m 0 min 0 min 0 W/m 12,6 km/h (3 Bft)
08.11.2014 01:50 6,8 C 5,0 C 95 % 1007,0 hPa 0,0 l/m 0 min 0 min 0 W/m 8,4 km/h (2 Bft)
08.11.2014 01:52 6,8 C 5,0 C 95 % 1007,0 hPa 0,0 l/m 0 min 0 min 0 W/m 10,5 km/h (2 Bft)
08.11.2014 01:54 6,8 C 5,0 C 95 % 1007,0 hPa 0,0 l/m 0 min 0 min 0 W/m 14,6 km/h (3 Bft)
08.11.2014 01:56 6,8 C 5,0 C 95 % 1007,0 hPa 0,0 l/m 0 min 0 min 0 W/m 10,5 km/h (2 Bft)
08.11.2014 01:58 6,8 C 5,0 C 95 % 1007,0 hPa 0,0 l/m 0 min 0 min 0 W/m 12,6 km/h (3 Bft)
08.11.2014 02:00 6,8 C 5,0 C 95 % 1007,1 hPa 0,0 l/m 0 min 0 min 0 W/m 14,6 km/h (3 Bft)
08.11.2014 02:02 6,8 C 5,0 C 95 % 1007,1 hPa 0,0 l/m 0 min 0 min 0 W/m 12,6 km/h (3 Bft)
08.11.2014 02:04 6,8 C 5,0 C 95 % 1007,1 hPa 0,0 l/m 0 min 0 min 0 W/m 14,6 km/h (3 Bft)
08.11.2014 02:06 6,8 C 5,0 C 95 % 1007,1 hPa 0,0 l/m 0 min 0 min 0 W/m 12,6 km/h (3 Bft)
08.11.2014 02:08 6,8 C 5,0 C 95 % 1007,1 hPa 0,0 l/m 0 min 0 min 0 W/m 10,5 km/h (2 Bft)
08.11.2014 02:10 6,8 C 5,0 C 95 % 1007,0 hPa 0,0 l/m 0 min 0 min 0 W/m 12,6 km/h (3 Bft)
08.11.2014 02:12 6,8 C 5,0 C 95 % 1007,1 hPa 0,0 l/m 0 min 0 min 0 W/m 8,4 km/h (2 Bft)
08.11.2014 02:14 6,8 C 5,0 C 95 % 1007,1 hPa 0,0 l/m 0 min 0 min 0 W/m 12,6 km/h (3 Bft)
08.11.2014 02:16 6,8 C 5,0 C 95 % 1007,1 hPa 0,0 l/m 0 min 0 min 0 W/m 8,4 km/h (2 Bft)
08.11.2014 02:18 6,8 C 5,0 C 95 % 1007,1 hPa 0,0 l/m 0 min 0 min 0 W/m 10,5 km/h (2 Bft)
08.11.2014 02:20 6,8 C 5,0 C 95 % 1007,1 hPa 0,0 l/m 0 min 0 min 0 W/m 12,6 km/h (3 Bft)
08.11.2014 02:22 6,8 C 5,0 C 95 % 1007,1 hPa 0,0 l/m 0 min 0 min 0 W/m 10,5 km/h (2 Bft)
08.11.2014 02:24 6,8 C 5,0 C 95 % 1007,2 hPa 0,0 l/m 0 min 0 min 0 W/m 10,5 km/h (2 Bft)
08.11.2014 02:26 6,8 C 5,0 C 95 % 1007,1 hPa 0,0 l/m 0 min 0 min 0 W/m 10,5 km/h (2 Bft)
08.11.2014 02:28 6,7 C 5,0 C 95 % 1007,1 hPa 0,0 l/m 0 min 0 min 0 W/m 8,4 km/h (2 Bft)
08.11.2014 02:30 6,7 C 5,0 C 95 % 1007,2 hPa 0,0 l/m 0 min 0 min 0 W/m 12,6 km/h (3 Bft)
08.11.2014 02:32 6,7 C 5,0 C 95 % 1007,1 hPa 0,0 l/m 0 min 0 min 0 W/m 10,5 km/h (2 Bft)
08.11.2014 02:34 6,7 C 4,4 C 95 % 1007,2 hPa 0,0 l/m 0 min 0 min 0 W/m 12,6 km/h (3 Bft)
08.11.2014 02:36 6,7 C 5,0 C 95 % 1007,1 hPa 0,0 l/m 0 min 0 min 0 W/m 14,6 km/h (3 Bft)
08.11.2014 02:38 6,7 C 5,0 C 95 % 1007,1 hPa 0,0 l/m 0 min 0 min 0 W/m 10,5 km/h (2 Bft)
08.11.2014 02:40 6,7 C 5,0 C 95 % 1007,1 hPa 0,0 l/m 0 min 0 min 0 W/m 10,5 km/h (2 Bft)
08.11.2014 02:42 6,7 C 5,0 C 95 % 1007,1 hPa 0,0 l/m 0 min 0 min 0 W/m 10,5 km/h (2 Bft)
08.11.2014 02:44 6,7 C 5,6 C 95 % 1007,1 hPa 0,0 l/m 0 min 0 min 0 W/m 12,6 km/h (3 Bft)
08.11.2014 02:46 6,7 C 5,6 C 95 % 1007,2 hPa 0,0 l/m 0 min 0 min 0 W/m 12,6 km/h (3 Bft)
08.11.2014 02:48 6,7 C 5,6 C 95 % 1007,2 hPa 0,0 l/m 0 min 0 min 0 W/m 12,6 km/h (3 Bft)
08.11.2014 02:50 6,7 C 5,6 C 95 % 1007,3 hPa 0,0 l/m 0 min 0 min 0 W/m 8,4 km/h (2 Bft)
08.11.2014 02:52 6,7 C 5,6 C 95 % 1007,2 hPa 0,0 l/m 0 min 0 min 0 W/m 12,6 km/h (3 Bft)
08.11.2014 02:54 6,8 C 5,0 C 95 % 1007,2 hPa 0,0 l/m 0 min 0 min 0 W/m 12,6 km/h (3 Bft)
08.11.2014 02:56 6,8 C 5,6 C 95 % 1007,3 hPa 0,0 l/m 0 min 0 min 0 W/m 12,6 km/h (3 Bft)
08.11.2014 02:58 6,8 C 5,6 C 95 % 1007,3 hPa 0,0 l/m 0 min 0 min 0 W/m 12,6 km/h (3 Bft)
08.11.2014 03:00 6,8 C 5,6 C 95 % 1007,3 hPa 0,0 l/m 0 min 0 min 0 W/m 10,5 km/h (2 Bft)
08.11.2014 03:02 6,8 C 5,6 C 95 % 1007,2 hPa 0,0 l/m 0 min 0 min 0 W/m 10,5 km/h (2 Bft)
08.11.2014 03:04 6,8 C 5,6 C 95 % 1007,3 hPa 0,0 l/m 0 min 0 min 0 W/m 10,5 km/h (2 Bft)
08.11.2014 03:06 6,9 C 5,6 C 95 % 1007,3 hPa 0,0 l/m 0 min 0 min 0 W/m 14,6 km/h (3 Bft)
08.11.2014 03:08 6,9 C 5,6 C 95 % 1007,3 hPa 0,0 l/m 0 min 0 min 0 W/m 10,5 km/h (2 Bft)
08.11.2014 03:10 6,9 C 5,6 C 95 % 1007,3 hPa 0,0 l/m 0 min 0 min 0 W/m 8,4 km/h (2 Bft)
08.11.2014 03:12 6,9 C 5,6 C 96 % 1007,3 hPa 0,0 l/m 0 min 0 min 0 W/m 14,6 km/h (3 Bft)
08.11.2014 03:14 7,0 C 5,6 C 96 % 1007,4 hPa 0,0 l/m 0 min 0 min 0 W/m 14,6 km/h (3 Bft)
08.11.2014 03:16 7,0 C 5,6 C 96 % 1007,3 hPa 0,0 l/m 0 min 0 min 0 W/m 10,5 km/h (2 Bft)
08.11.2014 03:18 7,0 C 5,6 C 96 % 1007,4 hPa 0,0 l/m 0 min 0 min 0 W/m 12,6 km/h (3 Bft)
08.11.2014 03:20 7,0 C 5,6 C 96 % 1007,4 hPa 0,0 l/m 0 min 0 min 0 W/m 12,6 km/h (3 Bft)
08.11.2014 03:22 7,1 C 5,6 C 96 % 1007,4 hPa 0,0 l/m 0 min 0 min 0 W/m 14,6 km/h (3 Bft)
08.11.2014 03:24 7,1 C 6,1 C 96 % 1007,4 hPa 0,0 l/m 0 min 0 min 0 W/m 10,5 km/h (2 Bft)
08.11.2014 03:26 7,1 C 6,1 C 96 % 1007,4 hPa 0,0 l/m 0 min 0 min 0 W/m 14,6 km/h (3 Bft)
08.11.2014 03:28 7,2 C 6,1 C 96 % 1007,3 hPa 0,0 l/m 0 min 0 min 0 W/m 14,6 km/h (3 Bft)
08.11.2014 03:30 7,2 C 6,7 C 96 % 1007,4 hPa 0,0 l/m 0 min 0 min 0 W/m 12,6 km/h (3 Bft)
08.11.2014 03:32 7,2 C 6,7 C 96 % 1007,4 hPa 0,0 l/m 0 min 0 min 0 W/m 14,6 km/h (3 Bft)
08.11.2014 03:34 7,3 C 6,7 C 96 % 1007,5 hPa 0,0 l/m 0 min 0 min 0 W/m 12,6 km/h (3 Bft)
08.11.2014 03:36 7,4 C 6,7 C 96 % 1007,5 hPa 0,0 l/m 0 min 0 min 0 W/m 18,8 km/h (3 Bft)
08.11.2014 03:38 7,5 C 6,7 C 96 % 1007,5 hPa 0,0 l/m 0 min 0 min 0 W/m 14,6 km/h (3 Bft)
08.11.2014 03:40 7,6 C 6,7 C 96 % 1007,4 hPa 0,0 l/m 0 min 0 min 0 W/m 16,7 km/h (3 Bft)
08.11.2014 03:42 7,7 C 6,7 C 96 % 1007,5 hPa 0,0 l/m 0 min 0 min 0 W/m 14,6 km/h (3 Bft)
08.11.2014 03:44 7,7 C 6,7 C 96 % 1007,5 hPa 0,0 l/m 0 min 0 min 0 W/m 20,9 km/h (4 Bft)
08.11.2014 03:46 7,8 C 6,7 C 96 % 1007,4 hPa 0,0 l/m 0 min 0 min 0 W/m 12,6 km/h (3 Bft)
08.11.2014 03:48 7,9 C 6,7 C 96 % 1007,5 hPa 0,0 l/m 0 min 0 min 0 W/m 18,8 km/h (3 Bft)
08.11.2014 03:50 7,9 C 7,2 C 96 % 1007,5 hPa 0,0 l/m 0 min 0 min 0 W/m 25,1 km/h (4 Bft)
08.11.2014 03:52 8,1 C 7,2 C 96 % 1007,6 hPa 0,0 l/m 0 min 0 min 0 W/m 27,2 km/h (4 Bft)
08.11.2014 03:54 8,2 C 7,2 C 96 % 1007,6 hPa 0,0 l/m 0 min 0 min 0 W/m 16,7 km/h (3 Bft)
08.11.2014 03:56 8,2 C 7,2 C 96 % 1007,5 hPa 0,0 l/m 0 min 0 min 0 W/m 23,0 km/h (4 Bft)
08.11.2014 03:58 8,3 C 7,2 C 96 % 1007,6 hPa 0,0 l/m 0 min 0 min 0 W/m 16,7 km/h (3 Bft)
08.11.2014 04:00 8,3 C 7,2 C 96 % 1007,6 hPa 0,0 l/m 0 min 0 min 0 W/m 18,8 km/h (3 Bft)
08.11.2014 04:02 8,4 C 7,2 C 96 % 1007,6 hPa 0,0 l/m 0 min 0 min 0 W/m 16,7 km/h (3 Bft)
08.11.2014 04:04 8,4 C 7,2 C 96 % 1007,6 hPa 0,0 l/m 0 min 0 min 0 W/m 18,8 km/h (3 Bft)
08.11.2014 04:06 8,5 C 7,2 C 96 % 1007,5 hPa 0,0 l/m 0 min 0 min 0 W/m 14,6 km/h (3 Bft)
08.11.2014 04:08 8,6 C 7,8 C 96 % 1007,6 hPa 0,0 l/m 0 min 0 min 0 W/m 23,0 km/h (4 Bft)
08.11.2014 04:10 8,6 C 7,8 C 96 % 1007,6 hPa 0,0 l/m 0 min 0 min 0 W/m 23,0 km/h (4 Bft)
08.11.2014 04:12 8,7 C 7,8 C 96 % 1007,5 hPa 0,0 l/m 0 min 0 min 0 W/m 18,8 km/h (3 Bft)
08.11.2014 04:14 8,7 C 7,8 C 96 % 1007,5 hPa 0,0 l/m 0 min 0 min 0 W/m 16,7 km/h (3 Bft)
08.11.2014 04:16 8,8 C 7,8 C 96 % 1007,5 hPa 0,0 l/m 0 min 0 min 0 W/m 18,8 km/h (3 Bft)
08.11.2014 04:18 8,8 C 7,8 C 96 % 1007,5 hPa 0,0 l/m 0 min 0 min 0 W/m 16,7 km/h (3 Bft)
08.11.2014 04:20 8,9 C 7,8 C 96 % 1007,6 hPa 0,0 l/m 0 min 0 min 0 W/m 31,4 km/h (5 Bft)
08.11.2014 04:22 8,9 C 7,8 C 95 % 1007,6 hPa 0,0 l/m 0 min 0 min 0 W/m 18,8 km/h (3 Bft)
08.11.2014 04:24 8,9 C 7,8 C 95 % 1007,7 hPa 0,0 l/m 0 min 0 min 0 W/m 12,6 km/h (3 Bft)
08.11.2014 04:26 8,9 C 8,3 C 95 % 1007,7 hPa 0,0 l/m 0 min 0 min 0 W/m 20,9 km/h (4 Bft)
08.11.2014 04:28 9,0 C 8,3 C 95 % 1007,7 hPa 0,0 l/m 0 min 0 min 0 W/m 16,7 km/h (3 Bft)
08.11.2014 04:30 9,1 C 8,3 C 95 % 1007,7 hPa 0,0 l/m 0 min 0 min 0 W/m 14,6 km/h (3 Bft)
08.11.2014 04:32 9,1 C 8,3 C 95 % 1007,7 hPa 0,0 l/m 0 min 0 min 0 W/m 14,6 km/h (3 Bft)
08.11.2014 04:34 9,1 C 8,3 C 94 % 1007,9 hPa 0,0 l/m 0 min 0 min 0 W/m 25,1 km/h (4 Bft)
08.11.2014 04:36 9,2 C 8,3 C 94 % 1007,9 hPa 0,0 l/m 0 min 0 min 0 W/m 16,7 km/h (3 Bft)
08.11.2014 04:38 9,2 C 8,3 C 94 % 1007,9 hPa 0,0 l/m 0 min 0 min 0 W/m 16,7 km/h (3 Bft)
08.11.2014 04:40 9,3 C 8,3 C 94 % 1007,9 hPa 0,0 l/m 0 min 0 min 0 W/m 16,7 km/h (3 Bft)
08.11.2014 04:42 9,3 C 8,3 C 93 % 1007,9 hPa 0,0 l/m 0 min 0 min 0 W/m 16,7 km/h (3 Bft)
08.11.2014 04:44 9,3 C 8,3 C 93 % 1007,9 hPa 0,0 l/m 0 min 0 min 0 W/m 18,8 km/h (3 Bft)
08.11.2014 04:46 9,4 C 8,3 C 93 % 1008,0 hPa 0,0 l/m 0 min 0 min 0 W/m 18,8 km/h (3 Bft)
08.11.2014 04:48 9,4 C 8,3 C 93 % 1007,9 hPa 0,0 l/m 0 min 0 min 0 W/m 25,1 km/h (4 Bft)
08.11.2014 04:50 9,5 C 8,3 C 92 % 1007,8 hPa 0,0 l/m 0 min 0 min 0 W/m 33,5 km/h (5 Bft)
08.11.2014 04:52 9,5 C 8,3 C 92 % 1007,9 hPa 0,0 l/m 0 min 0 min 0 W/m 18,8 km/h (3 Bft)
08.11.2014 04:54 9,6 C 8,9 C 92 % 1007,8 hPa 0,0 l/m 0 min 0 min 0 W/m 20,9 km/h (4 Bft)
08.11.2014 04:56 9,6 C 8,3 C 92 % 1007,9 hPa 0,0 l/m 0 min 0 min 0 W/m 18,8 km/h (3 Bft)
08.11.2014 04:58 9,7 C 8,3 C 91 % 1007,8 hPa 0,0 l/m 0 min 0 min 0 W/m 18,8 km/h (3 Bft)
08.11.2014 05:00 9,7 C 8,3 C 91 % 1007,8 hPa 0,0 l/m 0 min 0 min 0 W/m 16,7 km/h (3 Bft)
08.11.2014 05:02 9,7 C 8,3 C 91 % 1007,9 hPa 0,0 l/m 0 min 0 min 0 W/m 20,9 km/h (4 Bft)
08.11.2014 05:04 9,8 C 8,3 C 91 % 1007,9 hPa 0,0 l/m 0 min 0 min 0 W/m 27,2 km/h (4 Bft)
08.11.2014 05:06 9,8 C 8,3 C 90 % 1007,8 hPa 0,0 l/m 0 min 0 min 0 W/m 18,8 km/h (3 Bft)
08.11.2014 05:08 9,8 C 8,3 C 90 % 1007,9 hPa 0,0 l/m 0 min 0 min 0 W/m 23,0 km/h (4 Bft)
08.11.2014 05:10 9,8 C 8,3 C 90 % 1007,8 hPa 0,0 l/m 0 min 0 min 0 W/m 31,4 km/h (5 Bft)
08.11.2014 05:12 9,8 C 8,3 C 90 % 1007,9 hPa 0,0 l/m 0 min 0 min 0 W/m 25,1 km/h (4 Bft)
08.11.2014 05:14 9,9 C 8,3 C 90 % 1007,8 hPa 0,0 l/m 0 min 0 min 0 W/m 20,9 km/h (4 Bft)
08.11.2014 05:16 9,9 C 8,3 C 89 % 1007,8 hPa 0,0 l/m 0 min 0 min 0 W/m 12,6 km/h (3 Bft)
08.11.2014 05:18 9,9 C 8,3 C 89 % 1007,9 hPa 0,0 l/m 0 min 0 min 0 W/m 25,1 km/h (4 Bft)
08.11.2014 05:20 9,9 C 8,3 C 89 % 1007,9 hPa 0,0 l/m 0 min 0 min 0 W/m 23,0 km/h (4 Bft)
08.11.2014 05:22 9,9 C 8,3 C 89 % 1007,9 hPa 0,0 l/m 0 min 0 min 0 W/m 14,6 km/h (3 Bft)
08.11.2014 05:24 9,9 C 8,3 C 89 % 1007,9 hPa 0,0 l/m 0 min 0 min 0 W/m 16,7 km/h (3 Bft)
08.11.2014 05:26 9,9 C 7,8 C 89 % 1007,9 hPa 0,0 l/m 0 min 0 min 0 W/m 20,9 km/h (4 Bft)
08.11.2014 05:28 9,9 C 7,8 C 89 % 1007,9 hPa 0,0 l/m 0 min 0 min 0 W/m 16,7 km/h (3 Bft)
08.11.2014 05:30 9,8 C 7,8 C 89 % 1007,9 hPa 0,0 l/m 0 min 0 min 0 W/m 18,8 km/h (3 Bft)
08.11.2014 05:32 9,8 C 8,3 C 89 % 1008,0 hPa 0,0 l/m 0 min 0 min 0 W/m 20,9 km/h (4 Bft)
08.11.2014 05:34 9,8 C 7,8 C 88 % 1008,0 hPa 0,0 l/m 0 min 0 min 0 W/m 18,8 km/h (3 Bft)
08.11.2014 05:36 9,8 C 8,3 C 88 % 1008,0 hPa 0,0 l/m 0 min 0 min 0 W/m 18,8 km/h (3 Bft)
08.11.2014 05:38 9,8 C 8,3 C 88 % 1008,0 hPa 0,0 l/m 0 min 0 min 0 W/m 25,1 km/h (4 Bft)
08.11.2014 05:40 9,8 C 8,3 C 88 % 1008,0 hPa 0,0 l/m 0 min 0 min 0 W/m 14,6 km/h (3 Bft)
08.11.2014 05:42 9,8 C 7,8 C 88 % 1008,0 hPa 0,0 l/m 0 min 0 min 0 W/m 18,8 km/h (3 Bft)
08.11.2014 05:44 9,8 C 7,8 C 88 % 1008,2 hPa 0,0 l/m 0 min 0 min 0 W/m 23,0 km/h (4 Bft)
08.11.2014 05:46 9,8 C 7,8 C 88 % 1008,2 hPa 0,0 l/m 0 min 0 min 0 W/m 18,8 km/h (3 Bft)
08.11.2014 05:48 9,8 C 7,8 C 88 % 1008,1 hPa 0,0 l/m 0 min 0 min 0 W/m 23,0 km/h (4 Bft)
08.11.2014 05:50 9,8 C 7,8 C 88 % 1008,2 hPa 0,0 l/m 0 min 0 min 0 W/m 18,8 km/h (3 Bft)
08.11.2014 05:52 9,7 C 7,8 C 88 % 1008,3 hPa 0,0 l/m 0 min 0 min 0 W/m 18,8 km/h (3 Bft)
08.11.2014 05:54 9,7 C 7,8 C 88 % 1008,3 hPa 0,0 l/m 0 min 0 min 0 W/m 20,9 km/h (4 Bft)
08.11.2014 05:56 9,7 C 7,8 C 88 % 1008,2 hPa 0,0 l/m 0 min 0 min 0 W/m 29,3 km/h (5 Bft)
08.11.2014 05:58 9,7 C 7,8 C 88 % 1008,3 hPa 0,0 l/m 0 min 0 min 0 W/m 20,9 km/h (4 Bft)
08.11.2014 06:00 9,7 C 7,8 C 88 % 1008,3 hPa 0,0 l/m 0 min 0 min 0 W/m 20,9 km/h (4 Bft)
08.11.2014 06:02 9,7 C 7,8 C 88 % 1008,3 hPa 0,0 l/m 0 min 0 min 0 W/m 14,6 km/h (3 Bft)
08.11.2014 06:05 9,6 C 7,8 C 88 % 1008,3 hPa 0,0 l/m 0 min 0 min 0 W/m 20,9 km/h (4 Bft)
08.11.2014 06:08 9,6 C 7,8 C 88 % 1008,3 hPa 0,0 l/m 0 min 0 min 0 W/m 20,9 km/h (4 Bft)
08.11.2014 06:10 9,6 C 7,8 C 88 % 1008,4 hPa 0,0 l/m 0 min 0 min 0 W/m 18,8 km/h (3 Bft)
08.11.2014 06:12 9,6 C 7,8 C 88 % 1008,4 hPa 0,0 l/m 0 min 0 min 0 W/m 10,5 km/h (2 Bft)
08.11.2014 06:14 9,5 C 7,8 C 88 % 1008,4 hPa 0,0 l/m 0 min 0 min 0 W/m 16,7 km/h (3 Bft)
08.11.2014 06:16 9,5 C 7,2 C 88 % 1008,4 hPa 0,0 l/m 0 min 0 min 0 W/m 10,5 km/h (2 Bft)
08.11.2014 06:18 9,5 C 7,2 C 88 % 1008,5 hPa 0,0 l/m 0 min 0 min 0 W/m 10,5 km/h (2 Bft)
08.11.2014 06:20 9,4 C 7,2 C 88 % 1008,5 hPa 0,0 l/m 0 min 0 min 0 W/m 14,6 km/h (3 Bft)
08.11.2014 06:22 9,4 C 7,2 C 88 % 1008,6 hPa 0,0 l/m 0 min 0 min 0 W/m 10,5 km/h (2 Bft)
08.11.2014 06:24 9,4 C 7,2 C 88 % 1008,6 hPa 0,0 l/m 0 min 0 min 0 W/m 12,6 km/h (3 Bft)
08.11.2014 06:26 9,4 C 6,7 C 88 % 1008,6 hPa 0,0 l/m 0 min 0 min 0 W/m 14,6 km/h (3 Bft)
08.11.2014 06:28 9,3 C 7,2 C 88 % 1008,6 hPa 0,0 l/m 0 min 0 min 0 W/m 14,6 km/h (3 Bft)
08.11.2014 06:30 9,3 C 7,2 C 88 % 1008,7 hPa 0,0 l/m 0 min 0 min 0 W/m 12,6 km/h (3 Bft)
08.11.2014 06:32 9,3 C 7,2 C 88 % 1008,7 hPa 0,0 l/m 0 min 0 min 0 W/m 12,6 km/h (3 Bft)
08.11.2014 06:34 9,3 C 7,2 C 89 % 1008,7 hPa 0,0 l/m 0 min 0 min 0 W/m 14,6 km/h (3 Bft)
08.11.2014 06:36 9,2 C 7,2 C 89 % 1008,8 hPa 0,0 l/m 0 min 0 min 0 W/m 10,5 km/h (2 Bft)
08.11.2014 06:38 9,2 C 6,7 C 89 % 1008,9 hPa 0,0 l/m 0 min 0 min 0 W/m 8,4 km/h (2 Bft)
08.11.2014 06:40 9,2 C 6,7 C 88 % 1008,8 hPa 0,0 l/m 0 min 0 min 0 W/m 14,6 km/h (3 Bft)
08.11.2014 06:42 9,1 C 7,2 C 89 % 1008,9 hPa 0,0 l/m 0 min 0 min 0 W/m 20,9 km/h (4 Bft)
08.11.2014 06:44 9,1 C 7,2 C 89 % 1008,9 hPa 0,0 l/m 0 min 0 min 0 W/m 12,6 km/h (3 Bft)
08.11.2014 06:46 9,1 C 7,2 C 89 % 1008,8 hPa 0,0 l/m 0 min 0 min 0 W/m 14,6 km/h (3 Bft)
08.11.2014 06:48 9,1 C 7,2 C 89 % 1008,9 hPa 0,0 l/m 0 min 0 min 0 W/m 14,6 km/h (3 Bft)
08.11.2014 06:50 9,0 C 7,2 C 89 % 1008,9 hPa 0,0 l/m 0 min 0 min 0 W/m 14,6 km/h (3 Bft)
08.11.2014 06:52 9,0 C 7,2 C 89 % 1009,0 hPa 0,0 l/m 0 min 0 min 0 W/m 12,6 km/h (3 Bft)
08.11.2014 06:54 9,0 C 7,2 C 89 % 1009,0 hPa 0,0 l/m 0 min 0 min 0 W/m 14,6 km/h (3 Bft)
08.11.2014 06:56 8,9 C 6,7 C 89 % 1008,9 hPa 0,0 l/m 0 min 0 min 0 W/m 12,6 km/h (3 Bft)
08.11.2014 06:58 8,9 C 6,7 C 89 % 1008,9 hPa 0,0 l/m 0 min 0 min 0 W/m 10,5 km/h (2 Bft)
08.11.2014 07:00 8,9 C 6,7 C 89 % 1009,0 hPa 0,0 l/m 0 min 0 min 0 W/m 14,6 km/h (3 Bft)
08.11.2014 07:02 8,9 C 6,7 C 89 % 1009,0 hPa 0,0 l/m 0 min 0 min 0 W/m 14,6 km/h (3 Bft)
08.11.2014 07:04 8,9 C 6,7 C 89 % 1009,1 hPa 0,0 l/m 0 min 0 min 0 W/m 14,6 km/h (3 Bft)
08.11.2014 07:06 8,8 C 6,7 C 89 % 1009,1 hPa 0,0 l/m 0 min 0 min 0 W/m 14,6 km/h (3 Bft)
08.11.2014 07:08 8,8 C 6,7 C 89 % 1009,2 hPa 0,0 l/m 0 min 0 min 0 W/m 16,7 km/h (3 Bft)
08.11.2014 07:10 8,8 C 6,7 C 89 % 1009,2 hPa 0,0 l/m 0 min 0 min 0 W/m 20,9 km/h (4 Bft)
08.11.2014 07:12 8,8 C 6,7 C 89 % 1009,2 hPa 0,0 l/m 0 min 0 min 0 W/m 12,6 km/h (3 Bft)
08.11.2014 07:14 8,7 C 6,7 C 89 % 1009,3 hPa 0,0 l/m 0 min 0 min 0 W/m 18,8 km/h (3 Bft)
08.11.2014 07:16 8,7 C 6,7 C 90 % 1009,3 hPa 0,0 l/m 0 min 0 min 0 W/m 18,8 km/h (3 Bft)
08.11.2014 07:18 8,7 C 6,7 C 90 % 1009,2 hPa 0,0 l/m 0 min 0 min 0 W/m 18,8 km/h (3 Bft)
08.11.2014 07:20 8,7 C 6,7 C 90 % 1009,2 hPa 0,0 l/m 0 min 0 min 0 W/m 18,8 km/h (3 Bft)
08.11.2014 07:22 8,7 C 6,7 C 90 % 1009,2 hPa 0,0 l/m 0 min 0 min 0 W/m 18,8 km/h (3 Bft)
08.11.2014 07:24 8,7 C 6,7 C 90 % 1009,3 hPa 0,0 l/m 0 min 0 min 0 W/m 27,2 km/h (4 Bft)
08.11.2014 07:26 8,6 C 6,7 C 90 % 1009,2 hPa 0,0 l/m 0 min 0 min 0 W/m 18,8 km/h (3 Bft)
08.11.2014 07:28 8,6 C 7,2 C 90 % 1009,2 hPa 0,0 l/m 0 min 0 min 0 W/m 12,6 km/h (3 Bft)
08.11.2014 07:30 8,6 C 7,2 C 90 % 1009,3 hPa 0,0 l/m 0 min 0 min 0 W/m 18,8 km/h (3 Bft)
08.11.2014 07:32 8,6 C 7,2 C 90 % 1009,3 hPa 0,0 l/m 0 min 0 min 0 W/m 20,9 km/h (4 Bft)
08.11.2014 07:34 8,6 C 7,2 C 90 % 1009,4 hPa 0,0 l/m 0 min 0 min 5 W/m 20,9 km/h (4 Bft)
08.11.2014 07:36 8,6 C 7,2 C 90 % 1009,3 hPa 0,0 l/m 0 min 0 min 5 W/m 23,0 km/h (4 Bft)
08.11.2014 07:38 8,6 C 7,2 C 90 % 1009,4 hPa 0,0 l/m 0 min 0 min 5 W/m 23,0 km/h (4 Bft)
08.11.2014 07:40 8,6 C 7,2 C 90 % 1009,4 hPa 0,0 l/m 0 min 0 min 7 W/m 23,0 km/h (4 Bft)
08.11.2014 07:42 8,6 C 7,2 C 90 % 1009,5 hPa 0,0 l/m 0 min 0 min 7 W/m 23,0 km/h (4 Bft)
08.11.2014 07:44 8,6 C 7,2 C 90 % 1009,5 hPa 0,0 l/m 0 min 0 min 8 W/m 16,7 km/h (3 Bft)
08.11.2014 07:46 8,6 C 7,2 C 90 % 1009,4 hPa 0,0 l/m 0 min 0 min 9 W/m 20,9 km/h (4 Bft)
08.11.2014 07:48 8,6 C 7,2 C 90 % 1009,5 hPa 0,0 l/m 0 min 0 min 10 W/m 18,8 km/h (3 Bft)
08.11.2014 07:50 8,6 C 7,2 C 90 % 1009,5 hPa 0,0 l/m 0 min 0 min 11 W/m 25,1 km/h (4 Bft)
08.11.2014 07:52 8,6 C 7,2 C 90 % 1009,4 hPa 0,0 l/m 0 min 0 min 12 W/m 20,9 km/h (4 Bft)
08.11.2014 07:54 8,6 C 7,2 C 90 % 1009,5 hPa 0,0 l/m 0 min 0 min 12 W/m 14,6 km/h (3 Bft)
08.11.2014 07:56 8,6 C 7,2 C 90 % 1009,7 hPa 0,0 l/m 2 min 0 min 14 W/m 14,6 km/h (3 Bft)
08.11.2014 07:58 8,6 C 7,2 C 90 % 1009,6 hPa 0,0 l/m 2 min 0 min 16 W/m 16,7 km/h (3 Bft)
08.11.2014 08:00 8,6 C 7,2 C 90 % 1009,7 hPa 0,0 l/m 0 min 0 min 18 W/m 18,8 km/h (3 Bft)
08.11.2014 08:02 8,6 C 7,2 C 90 % 1009,7 hPa 0,0 l/m 0 min 0 min 19 W/m 27,2 km/h (4 Bft)
08.11.2014 08:04 8,6 C 7,2 C 90 % 1009,7 hPa 0,0 l/m 0 min 0 min 21 W/m 23,0 km/h (4 Bft)
08.11.2014 08:06 8,6 C 7,2 C 90 % 1009,8 hPa 0,0 l/m 0 min 0 min 23 W/m 20,9 km/h (4 Bft)
08.11.2014 08:08 8,6 C 7,2 C 90 % 1009,8 hPa 0,0 l/m 0 min 0 min 25 W/m 14,6 km/h (3 Bft)
08.11.2014 08:10 8,6 C 7,2 C 90 % 1009,7 hPa 0,0 l/m 0 min 0 min 26 W/m 14,6 km/h (3 Bft)
08.11.2014 08:12 8,6 C 7,2 C 90 % 1009,7 hPa 0,0 l/m 0 min 0 min 30 W/m 12,6 km/h (3 Bft)
08.11.2014 08:14 8,6 C 7,2 C 90 % 1009,8 hPa 0,0 l/m 0 min 0 min 32 W/m 12,6 km/h (3 Bft)
08.11.2014 08:16 8,6 C 6,7 C 90 % 1009,8 hPa 0,0 l/m 0 min 0 min 34 W/m 12,6 km/h (3 Bft)
08.11.2014 08:18 8,6 C 6,7 C 90 % 1009,8 hPa 0,0 l/m 0 min 0 min 37 W/m 12,6 km/h (3 Bft)
08.11.2014 08:20 8,6 C 6,7 C 90 % 1009,8 hPa 0,0 l/m 0 min 0 min 40 W/m 10,5 km/h (2 Bft)
08.11.2014 08:22 8,5 C 6,7 C 90 % 1009,9 hPa 0,0 l/m 0 min 0 min 42 W/m 18,8 km/h (3 Bft)
08.11.2014 08:24 8,6 C 6,7 C 90 % 1010,0 hPa 0,0 l/m 2 min 0 min 46 W/m 14,6 km/h (3 Bft)
08.11.2014 08:26 8,5 C 6,7 C 90 % 1010,0 hPa 0,0 l/m 2 min 0 min 48 W/m 14,6 km/h (3 Bft)
08.11.2014 08:28 8,5 C 6,7 C 90 % 1010,0 hPa 0,0 l/m 2 min 0 min 51 W/m 10,5 km/h (2 Bft)
08.11.2014 08:30 8,5 C 6,7 C 90 % 1010,0 hPa 0,0 l/m 2 min 0 min 55 W/m 14,6 km/h (3 Bft)
08.11.2014 08:32 8,5 C 6,7 C 90 % 1010,1 hPa 0,0 l/m 2 min 0 min 58 W/m 10,5 km/h (2 Bft)
08.11.2014 08:34 8,5 C 6,7 C 90 % 1010,1 hPa 0,0 l/m 2 min 0 min 63 W/m 18,8 km/h (3 Bft)
08.11.2014 08:36 8,5 C 6,7 C 90 % 1010,1 hPa 0,0 l/m 2 min 0 min 66 W/m 18,8 km/h (3 Bft)
08.11.2014 08:38 8,5 C 7,2 C 91 % 1010,1 hPa 0,0 l/m 2 min 0 min 70 W/m 14,6 km/h (3 Bft)
08.11.2014 08:40 8,5 C 7,2 C 91 % 1010,1 hPa 0,0 l/m 2 min 0 min 74 W/m 20,9 km/h (4 Bft)
08.11.2014 08:42 8,5 C 7,2 C 91 % 1010,1 hPa 0,0 l/m 2 min 0 min 78 W/m 16,7 km/h (3 Bft)
08.11.2014 08:44 8,6 C 7,2 C 91 % 1010,1 hPa 0,0 l/m 2 min 0 min 82 W/m 23,0 km/h (4 Bft)
08.11.2014 08:46 8,6 C 7,8 C 91 % 1010,1 hPa 0,0 l/m 2 min 0 min 86 W/m 14,6 km/h (3 Bft)
08.11.2014 08:48 8,6 C 7,8 C 91 % 1010,0 hPa 0,0 l/m 2 min 0 min 90 W/m 14,6 km/h (3 Bft)
08.11.2014 08:50 8,6 C 7,8 C 91 % 1010,1 hPa 0,0 l/m 2 min 0 min 94 W/m 18,8 km/h (3 Bft)
08.11.2014 08:52 8,6 C 7,8 C 90 % 1010,0 hPa 0,0 l/m 2 min 0 min 97 W/m 18,8 km/h (3 Bft)
08.11.2014 08:54 8,7 C 7,8 C 90 % 1010,0 hPa 0,0 l/m 2 min 0 min 101 W/m 16,7 km/h (3 Bft)
08.11.2014 08:56 8,7 C 7,8 C 90 % 1010,0 hPa 0,0 l/m 2 min 0 min 105 W/m 18,8 km/h (3 Bft)
08.11.2014 08:58 8,7 C 7,8 C 90 % 1010,1 hPa 0,0 l/m 2 min 0 min 109 W/m 14,6 km/h (3 Bft)
08.11.2014 09:00 8,7 C 7,8 C 90 % 1010,1 hPa 0,0 l/m 2 min 0 min 114 W/m 18,8 km/h (3 Bft)
08.11.2014 09:02 8,8 C 7,8 C 90 % 1010,1 hPa 0,0 l/m 2 min 0 min 119 W/m 23,0 km/h (4 Bft)
08.11.2014 09:04 8,8 C 7,8 C 90 % 1010,2 hPa 0,0 l/m 2 min 0 min 124 W/m 25,1 km/h (4 Bft)
08.11.2014 09:06 8,8 C 7,8 C 90 % 1010,2 hPa 0,0 l/m 2 min 0 min 127 W/m 20,9 km/h (4 Bft)
08.11.2014 09:08 8,9 C 7,8 C 90 % 1010,1 hPa 0,0 l/m 2 min 0 min 133 W/m 18,8 km/h (3 Bft)
08.11.2014 09:10 8,9 C 7,8 C 90 % 1010,2 hPa 0,0 l/m 2 min 0 min 137 W/m 18,8 km/h (3 Bft)
08.11.2014 09:12 8,9 C 7,8 C 90 % 1010,3 hPa 0,0 l/m 2 min 0 min 141 W/m 12,6 km/h (3 Bft)
08.11.2014 09:14 9,0 C 7,8 C 90 % 1010,3 hPa 0,0 l/m 2 min 0 min 147 W/m 16,7 km/h (3 Bft)
08.11.2014 09:16 9,1 C 7,8 C 90 % 1010,3 hPa 0,0 l/m 2 min 0 min 151 W/m 25,1 km/h (4 Bft)
08.11.2014 09:18 9,1 C 8,3 C 90 % 1010,4 hPa 0,0 l/m 2 min 0 min 155 W/m 25,1 km/h (4 Bft)
08.11.2014 09:20 9,1 C 8,3 C 89 % 1010,4 hPa 0,0 l/m 2 min 0 min 160 W/m 16,7 km/h (3 Bft)
08.11.2014 09:22 9,2 C 8,3 C 89 % 1010,5 hPa 0,0 l/m 2 min 0 min 164 W/m 14,6 km/h (3 Bft)
08.11.2014 09:24 9,2 C 8,3 C 89 % 1010,5 hPa 0,0 l/m 2 min 0 min 170 W/m 23,0 km/h (4 Bft)
08.11.2014 09:26 9,3 C 8,3 C 89 % 1010,5 hPa 0,0 l/m 2 min 0 min 176 W/m 14,6 km/h (3 Bft)
08.11.2014 09:28 9,3 C 8,3 C 89 % 1010,5 hPa 0,0 l/m 2 min 0 min 179 W/m 16,7 km/h (3 Bft)
08.11.2014 09:30 9,4 C 8,3 C 88 % 1010,5 hPa 0,0 l/m 2 min 0 min 184 W/m 16,7 km/h (3 Bft)
08.11.2014 09:32 9,4 C 8,3 C 88 % 1010,5 hPa 0,0 l/m 2 min 0 min 188 W/m 18,8 km/h (3 Bft)
08.11.2014 09:34 9,5 C 8,3 C 88 % 1010,5 hPa 0,0 l/m 2 min 0 min 192 W/m 14,6 km/h (3 Bft)
08.11.2014 09:36 9,5 C 8,3 C 88 % 1010,5 hPa 0,0 l/m 2 min 0 min 197 W/m 12,6 km/h (3 Bft)
08.11.2014 09:38 9,6 C 8,3 C 88 % 1010,5 hPa 0,0 l/m 2 min 0 min 202 W/m 16,7 km/h (3 Bft)
08.11.2014 09:40 9,6 C 8,3 C 88 % 1010,6 hPa 0,0 l/m 2 min 0 min 206 W/m 14,6 km/h (3 Bft)
08.11.2014 09:42 9,7 C 8,3 C 88 % 1010,6 hPa 0,0 l/m 2 min 0 min 210 W/m 23,0 km/h (4 Bft)
08.11.2014 09:44 9,7 C 8,3 C 88 % 1010,6 hPa 0,0 l/m 2 min 0 min 214 W/m 23,0 km/h (4 Bft)
08.11.2014 09:46 9,8 C 8,3 C 88 % 1010,6 hPa 0,0 l/m 2 min 0 min 219 W/m 16,7 km/h (3 Bft)
08.11.2014 09:48 9,9 C 8,3 C 87 % 1010,6 hPa 0,0 l/m 2 min 0 min 223 W/m 27,2 km/h (4 Bft)
08.11.2014 09:50 9,9 C 8,9 C 87 % 1010,6 hPa 0,0 l/m 2 min 0 min 228 W/m 16,7 km/h (3 Bft)
08.11.2014 09:52 10,1 C 8,9 C 87 % 1010,6 hPa 0,0 l/m 2 min 0 min 231 W/m 10,5 km/h (2 Bft)
08.11.2014 09:54 10,1 C 8,9 C 87 % 1010,5 hPa 0,0 l/m 2 min 0 min 235 W/m 16,7 km/h (3 Bft)
08.11.2014 09:56 10,2 C 8,9 C 86 % 1010,6 hPa 0,0 l/m 2 min 0 min 240 W/m 27,2 km/h (4 Bft)
08.11.2014 09:58 10,3 C 8,9 C 86 % 1010,6 hPa 0,0 l/m 2 min 0 min 244 W/m 27,2 km/h (4 Bft)
08.11.2014 10:00 10,3 C 8,9 C 85 % 1010,5 hPa 0,0 l/m 2 min 0 min 249 W/m 20,9 km/h (4 Bft)
08.11.2014 10:02 10,4 C 8,9 C 85 % 1010,5 hPa 0,0 l/m 2 min 0 min 253 W/m 10,5 km/h (2 Bft)
08.11.2014 10:04 10,5 C 8,9 C 85 % 1010,5 hPa 0,0 l/m 2 min 0 min 256 W/m 10,5 km/h (2 Bft)
08.11.2014 10:06 10,5 C 8,9 C 85 % 1010,6 hPa 0,0 l/m 2 min 0 min 259 W/m 14,6 km/h (3 Bft)
08.11.2014 10:08 10,6 C 8,9 C 85 % 1010,5 hPa 0,0 l/m 2 min 0 min 263 W/m 14,6 km/h (3 Bft)
08.11.2014 10:10 10,7 C 8,9 C 85 % 1010,6 hPa 0,0 l/m 2 min 0 min 267 W/m 18,8 km/h (3 Bft)
08.11.2014 10:12 10,8 C 8,9 C 84 % 1010,7 hPa 0,0 l/m 2 min 0 min 270 W/m 12,6 km/h (3 Bft)
08.11.2014 10:14 10,8 C 8,9 C 84 % 1010,6 hPa 0,0 l/m 2 min 0 min 273 W/m 20,9 km/h (4 Bft)
08.11.2014 10:16 10,9 C 9,4 C 83 % 1010,7 hPa 0,0 l/m 2 min 0 min 276 W/m 23,0 km/h (4 Bft)
08.11.2014 10:18 11,0 C 9,4 C 83 % 1010,7 hPa 0,0 l/m 2 min 0 min 279 W/m 16,7 km/h (3 Bft)
08.11.2014 10:20 11,1 C 9,4 C 83 % 1010,6 hPa 0,0 l/m 2 min 0 min 283 W/m 14,6 km/h (3 Bft)
08.11.2014 10:22 11,2 C 9,4 C 83 % 1010,6 hPa 0,0 l/m 2 min 0 min 287 W/m 16,7 km/h (3 Bft)
08.11.2014 10:24 11,2 C 9,4 C 82 % 1010,6 hPa 0,0 l/m 2 min 0 min 289 W/m 18,8 km/h (3 Bft)
08.11.2014 10:26 11,3 C 9,4 C 82 % 1010,7 hPa 0,0 l/m 2 min 0 min 293 W/m 25,1 km/h (4 Bft)
08.11.2014 10:28 11,3 C 9,4 C 81 % 1010,7 hPa 0,0 l/m 2 min 0 min 295 W/m 18,8 km/h (3 Bft)
08.11.2014 10:30 11,4 C 9,4 C 81 % 1010,7 hPa 0,0 l/m 2 min 0 min 298 W/m 18,8 km/h (3 Bft)
08.11.2014 10:32 11,4 C 9,4 C 81 % 1010,7 hPa 0,0 l/m 2 min 0 min 301 W/m 27,2 km/h (4 Bft)
08.11.2014 10:34 11,5 C 9,4 C 80 % 1010,7 hPa 0,0 l/m 2 min 0 min 304 W/m 18,8 km/h (3 Bft)
08.11.2014 10:36 11,6 C 9,4 C 80 % 1010,7 hPa 0,0 l/m 2 min 0 min 306 W/m 14,6 km/h (3 Bft)
08.11.2014 10:38 11,6 C 9,4 C 80 % 1010,8 hPa 0,0 l/m 2 min 0 min 309 W/m 29,3 km/h (5 Bft)
08.11.2014 10:40 11,7 C 9,4 C 80 % 1010,8 hPa 0,0 l/m 2 min 0 min 310 W/m 23,0 km/h (4 Bft)
08.11.2014 10:42 11,7 C 9,4 C 80 % 1010,8 hPa 0,0 l/m 2 min 0 min 313 W/m 14,6 km/h (3 Bft)
08.11.2014 10:44 11,8 C 9,4 C 80 % 1010,8 hPa 0,0 l/m 2 min 0 min 316 W/m 27,2 km/h (4 Bft)
08.11.2014 10:46 11,9 C 10,0 C 79 % 1010,8 hPa 0,0 l/m 2 min 0 min 320 W/m 27,2 km/h (4 Bft)
08.11.2014 10:48 11,9 C 10,0 C 79 % 1010,8 hPa 0,0 l/m 2 min 0 min 322 W/m 20,9 km/h (4 Bft)
08.11.2014 10:50 12,0 C 10,0 C 79 % 1010,8 hPa 0,0 l/m 2 min 0 min 323 W/m 33,5 km/h (5 Bft)
08.11.2014 10:52 12,1 C 10,0 C 78 % 1010,8 hPa 0,0 l/m 2 min 0 min 326 W/m 33,5 km/h (5 Bft)
08.11.2014 10:54 12,1 C 10,0 C 77 % 1010,8 hPa 0,0 l/m 2 min 0 min 327 W/m 31,4 km/h (5 Bft)
08.11.2014 10:56 12,1 C 10,0 C 78 % 1010,8 hPa 0,0 l/m 2 min 0 min 330 W/m 14,6 km/h (3 Bft)
08.11.2014 10:58 12,2 C 10,0 C 78 % 1010,7 hPa 0,0 l/m 2 min 0 min 331 W/m 14,6 km/h (3 Bft)
08.11.2014 11:00 12,2 C 10,0 C 78 % 1010,8 hPa 0,0 l/m 2 min 0 min 333 W/m 23,0 km/h (4 Bft)
08.11.2014 11:02 12,3 C 10,0 C 77 % 1010,8 hPa 0,0 l/m 2 min 0 min 336 W/m 27,2 km/h (4 Bft)
08.11.2014 11:04 12,4 C 10,0 C 77 % 1010,8 hPa 0,0 l/m 2 min 0 min 337 W/m 27,2 km/h (4 Bft)
08.11.2014 11:06 12,4 C 10,0 C 77 % 1010,8 hPa 0,0 l/m 2 min 0 min 339 W/m 37,7 km/h (5 Bft)
08.11.2014 11:08 12,5 C 10,0 C 76 % 1010,7 hPa 0,0 l/m 2 min 0 min 341 W/m 29,3 km/h (5 Bft)
08.11.2014 11:10 12,6 C 10,6 C 77 % 1010,8 hPa 0,0 l/m 2 min 0 min 342 W/m 16,7 km/h (3 Bft)
08.11.2014 11:12 12,6 C 10,6 C 77 % 1010,8 hPa 0,0 l/m 2 min 0 min 343 W/m 18,8 km/h (3 Bft)
08.11.2014 11:14 12,7 C 10,6 C 77 % 1010,8 hPa 0,0 l/m 2 min 0 min 346 W/m 27,2 km/h (4 Bft)
08.11.2014 11:16 12,7 C 10,6 C 76 % 1010,8 hPa 0,0 l/m 2 min 0 min 346 W/m 33,5 km/h (5 Bft)
08.11.2014 11:18 12,7 C 10,6 C 76 % 1010,8 hPa 0,0 l/m 2 min 0 min 348 W/m 27,2 km/h (4 Bft)
08.11.2014 11:20 12,8 C 10,6 C 76 % 1010,8 hPa 0,0 l/m 2 min 0 min 349 W/m 27,2 km/h (4 Bft)
08.11.2014 11:22 12,8 C 10,6 C 76 % 1010,8 hPa 0,0 l/m 2 min 0 min 350 W/m 20,9 km/h (4 Bft)
08.11.2014 11:24 12,8 C 10,6 C 76 % 1010,8 hPa 0,0 l/m 2 min 0 min 351 W/m 20,9 km/h (4 Bft)
08.11.2014 11:26 12,8 C 10,6 C 76 % 1010,9 hPa 0,0 l/m 2 min 0 min 353 W/m 23,0 km/h (4 Bft)
08.11.2014 11:28 12,9 C 10,6 C 76 % 1010,9 hPa 0,0 l/m 2 min 0 min 352 W/m 20,9 km/h (4 Bft)
08.11.2014 11:30 12,9 C 10,6 C 76 % 1010,9 hPa 0,0 l/m 2 min 0 min 356 W/m 23,0 km/h (4 Bft)
08.11.2014 11:32 13,0 C 10,6 C 75 % 1010,8 hPa 0,0 l/m 2 min 0 min 354 W/m 25,1 km/h (4 Bft)
08.11.2014 11:34 13,0 C 10,6 C 75 % 1010,8 hPa 0,0 l/m 2 min 0 min 354 W/m 23,0 km/h (4 Bft)
08.11.2014 11:36 13,1 C 10,6 C 75 % 1010,8 hPa 0,0 l/m 2 min 0 min 359 W/m 27,2 km/h (4 Bft)
08.11.2014 11:38 13,1 C 10,6 C 75 % 1010,8 hPa 0,0 l/m 2 min 0 min 360 W/m 16,7 km/h (3 Bft)
08.11.2014 11:40 13,2 C 10,6 C 75 % 1010,8 hPa 0,0 l/m 2 min 0 min 359 W/m 14,6 km/h (3 Bft)
08.11.2014 11:42 13,2 C 11,1 C 75 % 1010,8 hPa 0,0 l/m 2 min 0 min 362 W/m 20,9 km/h (4 Bft)
08.11.2014 11:44 13,3 C 11,1 C 75 % 1010,8 hPa 0,0 l/m 2 min 0 min 363 W/m 27,2 km/h (4 Bft)
08.11.2014 11:46 13,3 C 11,1 C 75 % 1010,7 hPa 0,0 l/m 2 min 0 min 363 W/m 35,6 km/h (5 Bft)
08.11.2014 11:48 13,3 C 11,1 C 74 % 1010,7 hPa 0,0 l/m 2 min 0 min 365 W/m 25,1 km/h (4 Bft)
08.11.2014 11:50 13,4 C 11,1 C 74 % 1010,7 hPa 0,0 l/m 2 min 0 min 362 W/m 23,0 km/h (4 Bft)
08.11.2014 11:52 13,4 C 11,1 C 74 % 1010,7 hPa 0,0 l/m 2 min 0 min 364 W/m 25,1 km/h (4 Bft)
08.11.2014 11:54 13,4 C 11,1 C 74 % 1010,7 hPa 0,0 l/m 2 min 0 min 363 W/m 16,7 km/h (3 Bft)
08.11.2014 11:56 13,5 C 11,1 C 74 % 1010,6 hPa 0,0 l/m 2 min 0 min 366 W/m 18,8 km/h (3 Bft)
08.11.2014 11:58 13,6 C 11,1 C 74 % 1010,7 hPa 0,0 l/m 2 min 0 min 366 W/m 31,4 km/h (5 Bft)
08.11.2014 12:00 13,6 C 11,1 C 73 % 1010,7 hPa 0,0 l/m 2 min 0 min 365 W/m 20,9 km/h (4 Bft)
08.11.2014 12:02 13,6 C 11,1 C 73 % 1010,7 hPa 0,0 l/m 2 min 0 min 364 W/m 20,9 km/h (4 Bft)
08.11.2014 12:05 13,7 C 11,1 C 73 % 1010,7 hPa 0,0 l/m 2 min 0 min 367 W/m 25,1 km/h (4 Bft)
08.11.2014 12:08 13,8 C 11,7 C 73 % 1010,7 hPa 0,0 l/m 2 min 0 min 363 W/m 25,1 km/h (4 Bft)
08.11.2014 12:10 13,8 C 11,7 C 72 % 1010,7 hPa 0,0 l/m 2 min 0 min 367 W/m 23,0 km/h (4 Bft)
08.11.2014 12:12 13,8 C 11,7 C 72 % 1010,7 hPa 0,0 l/m 2 min 0 min 368 W/m 25,1 km/h (4 Bft)
08.11.2014 12:14 13,9 C 11,7 C 72 % 1010,7 hPa 0,0 l/m 2 min 0 min 369 W/m 20,9 km/h (4 Bft)
08.11.2014 12:16 13,9 C 11,7 C 72 % 1010,7 hPa 0,0 l/m 2 min 0 min 368 W/m 18,8 km/h (3 Bft)
08.11.2014 12:18 14,0 C 11,7 C 72 % 1010,6 hPa 0,0 l/m 2 min 0 min 368 W/m 12,6 km/h (3 Bft)
08.11.2014 12:20 14,0 C 11,7 C 73 % 1010,6 hPa 0,0 l/m 2 min 0 min 366 W/m 25,1 km/h (4 Bft)
08.11.2014 12:22 14,1 C 11,7 C 72 % 1010,7 hPa 0,0 l/m 2 min 0 min 367 W/m 18,8 km/h (3 Bft)
08.11.2014 12:24 14,2 C 11,7 C 72 % 1010,7 hPa 0,0 l/m 2 min 0 min 367 W/m 23,0 km/h (4 Bft)
08.11.2014 12:26 14,2 C 11,7 C 71 % 1010,7 hPa 0,0 l/m 2 min 0 min 371 W/m 31,4 km/h (5 Bft)
08.11.2014 12:28 14,2 C 11,7 C 71 % 1010,7 hPa 0,0 l/m 2 min 0 min 369 W/m 33,5 km/h (5 Bft)
08.11.2014 12:30 14,2 C 11,7 C 70 % 1010,6 hPa 0,0 l/m 2 min 0 min 358 W/m 29,3 km/h (5 Bft)
08.11.2014 12:32 14,2 C 11,7 C 70 % 1010,6 hPa 0,0 l/m 2 min 0 min 352 W/m 29,3 km/h (5 Bft)
08.11.2014 12:34 14,2 C 11,7 C 70 % 1010,6 hPa 0,0 l/m 2 min 0 min 357 W/m 25,1 km/h (4 Bft)
08.11.2014 12:36 14,2 C 11,7 C 70 % 1010,7 hPa 0,0 l/m 2 min 0 min 365 W/m 23,0 km/h (4 Bft)
08.11.2014 12:38 14,2 C 11,7 C 70 % 1010,6 hPa 0,0 l/m 2 min 0 min 367 W/m 20,9 km/h (4 Bft)
08.11.2014 12:40 14,2 C 11,7 C 70 % 1010,6 hPa 0,0 l/m 2 min 0 min 361 W/m 20,9 km/h (4 Bft)
08.11.2014 12:42 14,2 C 11,7 C 70 % 1010,7 hPa 0,0 l/m 2 min 0 min 363 W/m 29,3 km/h (5 Bft)
08.11.2014 12:44 14,2 C 11,7 C 70 % 1010,6 hPa 0,0 l/m 2 min 0 min 368 W/m 31,4 km/h (5 Bft)
08.11.2014 12:46 14,2 C 11,7 C 70 % 1010,6 hPa 0,0 l/m 2 min 0 min 367 W/m 20,9 km/h (4 Bft)
08.11.2014 12:48 14,2 C 11,7 C 70 % 1010,6 hPa 0,0 l/m 2 min 0 min 367 W/m 35,6 km/h (5 Bft)
08.11.2014 12:50 14,2 C 11,7 C 69 % 1010,5 hPa 0,0 l/m 2 min 0 min 363 W/m 25,1 km/h (4 Bft)
08.11.2014 12:52 14,2 C 11,7 C 69 % 1010,6 hPa 0,0 l/m 2 min 0 min 360 W/m 31,4 km/h (5 Bft)
08.11.2014 12:54 14,2 C 11,7 C 70 % 1010,6 hPa 0,0 l/m 2 min 0 min 358 W/m 20,9 km/h (4 Bft)
08.11.2014 12:56 14,2 C 11,7 C 70 % 1010,6 hPa 0,0 l/m 2 min 0 min 355 W/m 27,2 km/h (4 Bft)
08.11.2014 12:58 14,2 C 12,2 C 70 % 1010,7 hPa 0,0 l/m 2 min 0 min 355 W/m 29,3 km/h (5 Bft)
08.11.2014 13:00 14,3 C 12,2 C 70 % 1010,6 hPa 0,0 l/m 2 min 0 min 351 W/m 25,1 km/h (4 Bft)
08.11.2014 13:02 14,3 C 12,2 C 70 % 1010,6 hPa 0,0 l/m 2 min 0 min 347 W/m 27,2 km/h (4 Bft)
08.11.2014 13:04 14,4 C 12,2 C 69 % 1010,6 hPa 0,0 l/m 2 min 0 min 347 W/m 29,3 km/h (5 Bft)
08.11.2014 13:06 14,4 C 12,2 C 69 % 1010,6 hPa 0,0 l/m 2 min 0 min 338 W/m 14,6 km/h (3 Bft)
08.11.2014 13:08 14,4 C 12,2 C 69 % 1010,5 hPa 0,0 l/m 2 min 0 min 331 W/m 16,7 km/h (3 Bft)
08.11.2014 13:10 14,5 C 12,2 C 69 % 1010,5 hPa 0,0 l/m 2 min 0 min 332 W/m 14,6 km/h (3 Bft)
08.11.2014 13:12 14,6 C 12,2 C 70 % 1010,5 hPa 0,0 l/m 2 min 0 min 338 W/m 12,6 km/h (3 Bft)
08.11.2014 13:14 14,6 C 12,2 C 69 % 1010,4 hPa 0,0 l/m 2 min 0 min 336 W/m 20,9 km/h (4 Bft)
08.11.2014 13:16 14,7 C 12,2 C 69 % 1010,4 hPa 0,0 l/m 2 min 0 min 339 W/m 20,9 km/h (4 Bft)
08.11.2014 13:18 14,7 C 12,2 C 69 % 1010,4 hPa 0,0 l/m 2 min 0 min 344 W/m 18,8 km/h (3 Bft)
08.11.2014 13:20 14,7 C 12,2 C 69 % 1010,4 hPa 0,0 l/m 2 min 0 min 344 W/m 20,9 km/h (4 Bft)
08.11.2014 13:22 14,8 C 12,2 C 69 % 1010,4 hPa 0,0 l/m 2 min 0 min 344 W/m 20,9 km/h (4 Bft)
08.11.2014 13:24 14,8 C 12,2 C 69 % 1010,4 hPa 0,0 l/m 2 min 0 min 341 W/m 23,0 km/h (4 Bft)
08.11.2014 13:26 14,8 C 12,2 C 69 % 1010,4 hPa 0,0 l/m 2 min 0 min 339 W/m 25,1 km/h (4 Bft)
08.11.2014 13:28 14,9 C 12,2 C 68 % 1010,5 hPa 0,0 l/m 2 min 0 min 338 W/m 18,8 km/h (3 Bft)
08.11.2014 13:30 14,9 C 12,2 C 68 % 1010,5 hPa 0,0 l/m 2 min 0 min 345 W/m 23,0 km/h (4 Bft)
08.11.2014 13:32 14,8 C 12,2 C 68 % 1010,4 hPa 0,0 l/m 2 min 0 min 176 W/m 29,3 km/h (5 Bft)
08.11.2014 13:34 14,9 C 12,2 C 68 % 1010,4 hPa 0,0 l/m 2 min 0 min 364 W/m 23,0 km/h (4 Bft)
08.11.2014 13:36 14,8 C 12,2 C 68 % 1010,4 hPa 0,0 l/m 2 min 0 min 359 W/m 23,0 km/h (4 Bft)
08.11.2014 13:38 14,8 C 12,2 C 68 % 1010,4 hPa 0,0 l/m 2 min 0 min 362 W/m 27,2 km/h (4 Bft)
08.11.2014 13:40 14,7 C 12,2 C 68 % 1010,4 hPa 0,0 l/m 2 min 0 min 361 W/m 20,9 km/h (4 Bft)
08.11.2014 13:42 14,7 C 12,8 C 68 % 1010,4 hPa 0,0 l/m 2 min 0 min 356 W/m 18,8 km/h (3 Bft)
08.11.2014 13:44 14,7 C 12,8 C 68 % 1010,3 hPa 0,0 l/m 2 min 0 min 348 W/m 14,6 km/h (3 Bft)
08.11.2014 13:46 14,7 C 12,8 C 69 % 1010,4 hPa 0,0 l/m 2 min 0 min 319 W/m 23,0 km/h (4 Bft)
08.11.2014 13:48 14,8 C 12,8 C 69 % 1010,5 hPa 0,0 l/m 2 min 0 min 306 W/m 16,7 km/h (3 Bft)
08.11.2014 13:50 14,8 C 12,8 C 68 % 1010,4 hPa 0,0 l/m 2 min 0 min 299 W/m 25,1 km/h (4 Bft)
08.11.2014 13:52 14,8 C 12,2 C 69 % 1010,4 hPa 0,0 l/m 2 min 0 min 290 W/m 25,1 km/h (4 Bft)
08.11.2014 13:54 14,8 C 12,2 C 68 % 1010,4 hPa 0,0 l/m 2 min 0 min 279 W/m 27,2 km/h (4 Bft)
08.11.2014 13:56 14,8 C 12,2 C 67 % 1010,3 hPa 0,0 l/m 2 min 0 min 275 W/m 25,1 km/h (4 Bft)
08.11.2014 13:58 14,8 C 12,2 C 68 % 1010,3 hPa 0,0 l/m 2 min 0 min 274 W/m 18,8 km/h (3 Bft)
08.11.2014 14:00 14,8 C 12,2 C 68 % 1010,3 hPa 0,0 l/m 2 min 0 min 269 W/m 23,0 km/h (4 Bft)
08.11.2014 14:02 14,7 C 12,2 C 68 % 1010,2 hPa 0,0 l/m 2 min 0 min 259 W/m 37,7 km/h (5 Bft)
08.11.2014 14:04 14,7 C 12,2 C 68 % 1010,2 hPa 0,0 l/m 2 min 0 min 269 W/m 18,8 km/h (3 Bft)
08.11.2014 14:06 14,7 C 12,2 C 68 % 1010,2 hPa 0,0 l/m 2 min 0 min 265 W/m 14,6 km/h (3 Bft)
08.11.2014 14:08 14,6 C 12,2 C 68 % 1010,2 hPa 0,0 l/m 2 min 0 min 263 W/m 16,7 km/h (3 Bft)
08.11.2014 14:10 14,6 C 12,2 C 68 % 1010,1 hPa 0,0 l/m 2 min 0 min 259 W/m 18,8 km/h (3 Bft)
08.11.2014 14:12 14,6 C 12,2 C 69 % 1010,2 hPa 0,0 l/m 2 min 0 min 252 W/m 14,6 km/h (3 Bft)
08.11.2014 14:14 14,6 C 12,2 C 68 % 1010,1 hPa 0,0 l/m 2 min 0 min 243 W/m 25,1 km/h (4 Bft)
08.11.2014 14:16 14,6 C 12,2 C 68 % 1010,1 hPa 0,0 l/m 2 min 0 min 240 W/m 20,9 km/h (4 Bft)
08.11.2014 14:18 14,6 C 12,2 C 68 % 1010,1 hPa 0,0 l/m 2 min 0 min 247 W/m 18,8 km/h (3 Bft)
08.11.2014 14:20 14,6 C 12,2 C 68 % 1010,1 hPa 0,0 l/m 2 min 0 min 230 W/m 20,9 km/h (4 Bft)
08.11.2014 14:22 14,6 C 12,2 C 68 % 1010,0 hPa 0,0 l/m 2 min 0 min 200 W/m 18,8 km/h (3 Bft)
08.11.2014 14:24 14,6 C 12,2 C 67 % 1010,0 hPa 0,0 l/m 2 min 0 min 199 W/m 20,9 km/h (4 Bft)
08.11.2014 14:26 14,6 C 12,2 C 68 % 1010,1 hPa 0,0 l/m 2 min 0 min 206 W/m 27,2 km/h (4 Bft)
08.11.2014 14:28 14,7 C 11,7 C 68 % 1010,0 hPa 0,0 l/m 2 min 0 min 202 W/m 23,0 km/h (4 Bft)
08.11.2014 14:30 14,7 C 12,2 C 69 % 1010,1 hPa 0,0 l/m 2 min 0 min 190 W/m 16,7 km/h (3 Bft)
08.11.2014 14:32 14,7 C 11,7 C 69 % 1010,0 hPa 0,0 l/m 2 min 0 min 173 W/m 18,8 km/h (3 Bft)
08.11.2014 14:34 14,7 C 11,7 C 68 % 1010,1 hPa 0,0 l/m 2 min 0 min 171 W/m 25,1 km/h (4 Bft)
08.11.2014 14:36 14,7 C 11,7 C 68 % 1010,1 hPa 0,0 l/m 2 min 0 min 185 W/m 35,6 km/h (5 Bft)
08.11.2014 14:38 14,6 C 11,7 C 67 % 1010,1 hPa 0,0 l/m 2 min 0 min 188 W/m 43,9 km/h (6 Bft)
08.11.2014 14:40 14,6 C 11,7 C 67 % 1010,0 hPa 0,0 l/m 2 min 0 min 180 W/m 20,9 km/h (4 Bft)
08.11.2014 14:42 14,6 C 11,7 C 67 % 1009,9 hPa 0,0 l/m 2 min 0 min 178 W/m 18,8 km/h (3 Bft)
08.11.2014 14:44 14,6 C 11,7 C 67 % 1010,0 hPa 0,0 l/m 2 min 0 min 174 W/m 20,9 km/h (4 Bft)
08.11.2014 14:46 14,5 C 11,7 C 67 % 1009,9 hPa 0,0 l/m 2 min 0 min 176 W/m 35,6 km/h (5 Bft)
08.11.2014 14:48 14,5 C 11,7 C 67 % 1009,9 hPa 0,0 l/m 2 min 0 min 152 W/m 20,9 km/h (4 Bft)
08.11.2014 14:50 14,4 C 11,7 C 68 % 1009,9 hPa 0,0 l/m 2 min 0 min 172 W/m 16,7 km/h (3 Bft)
08.11.2014 14:52 14,4 C 11,7 C 68 % 1009,9 hPa 0,0 l/m 2 min 0 min 148 W/m 20,9 km/h (4 Bft)
08.11.2014 14:54 14,4 C 11,7 C 68 % 1009,9 hPa 0,0 l/m 2 min 0 min 155 W/m 23,0 km/h (4 Bft)
08.11.2014 14:56 14,3 C 11,7 C 68 % 1009,9 hPa 0,0 l/m 2 min 0 min 156 W/m 18,8 km/h (3 Bft)
08.11.2014 14:58 14,3 C 11,7 C 68 % 1009,9 hPa 0,0 l/m 2 min 0 min 142 W/m 20,9 km/h (4 Bft)
08.11.2014 15:00 14,3 C 11,7 C 68 % 1009,9 hPa 0,0 l/m 2 min 0 min 156 W/m 23,0 km/h (4 Bft)
08.11.2014 15:02 14,3 C 11,7 C 68 % 1009,9 hPa 0,0 l/m 2 min 0 min 166 W/m 14,6 km/h (3 Bft)
08.11.2014 15:04 14,3 C 11,7 C 68 % 1009,9 hPa 0,0 l/m 2 min 0 min 171 W/m 18,8 km/h (3 Bft)
08.11.2014 15:06 14,2 C 11,7 C 68 % 1009,9 hPa 0,0 l/m 2 min 0 min 149 W/m 23,0 km/h (4 Bft)
08.11.2014 15:08 14,2 C 11,7 C 68 % 1009,9 hPa 0,0 l/m 2 min 0 min 139 W/m 14,6 km/h (3 Bft)
08.11.2014 15:10 14,2 C 11,7 C 69 % 1009,9 hPa 0,0 l/m 2 min 0 min 134 W/m 20,9 km/h (4 Bft)
08.11.2014 15:12 14,2 C 11,7 C 69 % 1009,9 hPa 0,0 l/m 2 min 0 min 137 W/m 10,5 km/h (2 Bft)
08.11.2014 15:14 14,2 C 11,7 C 69 % 1009,8 hPa 0,0 l/m 2 min 0 min 137 W/m 14,6 km/h (3 Bft)
08.11.2014 15:16 14,2 C 11,7 C 69 % 1009,8 hPa 0,0 l/m 2 min 0 min 135 W/m 16,7 km/h (3 Bft)
08.11.2014 15:18 14,2 C 11,7 C 69 % 1009,8 hPa 0,0 l/m 2 min 0 min 132 W/m 16,7 km/h (3 Bft)
08.11.2014 15:20 14,1 C 11,7 C 70 % 1009,8 hPa 0,0 l/m 2 min 0 min 123 W/m 18,8 km/h (3 Bft)
08.11.2014 15:22 14,1 C 11,7 C 70 % 1009,8 hPa 0,0 l/m 2 min 0 min 111 W/m 20,9 km/h (4 Bft)
08.11.2014 15:24 14,0 C 11,1 C 70 % 1009,8 hPa 0,0 l/m 2 min 0 min 110 W/m 18,8 km/h (3 Bft)
08.11.2014 15:26 13,9 C 11,1 C 70 % 1009,7 hPa 0,0 l/m 2 min 0 min 111 W/m 23,0 km/h (4 Bft)
08.11.2014 15:28 13,9 C 11,1 C 70 % 1009,7 hPa 0,0 l/m 2 min 0 min 105 W/m 20,9 km/h (4 Bft)
08.11.2014 15:30 13,8 C 11,1 C 70 % 1009,7 hPa 0,0 l/m 2 min 0 min 94 W/m 18,8 km/h (3 Bft)
08.11.2014 15:32 13,8 C 11,1 C 71 % 1009,8 hPa 0,0 l/m 2 min 0 min 88 W/m 37,7 km/h (5 Bft)
08.11.2014 15:34 13,7 C 11,1 C 71 % 1009,8 hPa 0,0 l/m 2 min 0 min 88 W/m 20,9 km/h (4 Bft)
08.11.2014 15:36 13,7 C 11,1 C 71 % 1009,8 hPa 0,0 l/m 2 min 0 min 92 W/m 14,6 km/h (3 Bft)
08.11.2014 15:38 13,7 C 11,1 C 71 % 1009,8 hPa 0,0 l/m 2 min 0 min 86 W/m 14,6 km/h (3 Bft)
08.11.2014 15:40 13,6 C 11,1 C 71 % 1009,8 hPa 0,0 l/m 2 min 0 min 82 W/m 25,1 km/h (4 Bft)
08.11.2014 15:42 13,5 C 11,1 C 71 % 1009,7 hPa 0,0 l/m 0 min 0 min 76 W/m 14,6 km/h (3 Bft)
08.11.2014 15:44 13,5 C 11,1 C 71 % 1009,7 hPa 0,0 l/m 0 min 0 min 70 W/m 20,9 km/h (4 Bft)
08.11.2014 15:46 13,4 C 11,1 C 71 % 1009,7 hPa 0,0 l/m 0 min 0 min 66 W/m 23,0 km/h (4 Bft)
08.11.2014 15:48 13,4 C 10,6 C 72 % 1009,7 hPa 0,0 l/m 0 min 0 min 63 W/m 14,6 km/h (3 Bft)
08.11.2014 15:50 13,3 C 10,6 C 72 % 1009,7 hPa 0,0 l/m 0 min 0 min 63 W/m 14,6 km/h (3 Bft)
08.11.2014 15:52 13,3 C 10,6 C 72 % 1009,7 hPa 0,0 l/m 0 min 0 min 56 W/m 23,0 km/h (4 Bft)
08.11.2014 15:54 13,2 C 10,6 C 72 % 1009,7 hPa 0,0 l/m 0 min 0 min 53 W/m 20,9 km/h (4 Bft)
08.11.2014 15:56 13,2 C 10,6 C 72 % 1009,7 hPa 0,0 l/m 0 min 0 min 53 W/m 18,8 km/h (3 Bft)
08.11.2014 15:58 13,1 C 10,6 C 73 % 1009,7 hPa 0,0 l/m 0 min 0 min 51 W/m 23,0 km/h (4 Bft)
08.11.2014 16:00 13,1 C 10,6 C 73 % 1009,7 hPa 0,0 l/m 0 min 0 min 49 W/m 25,1 km/h (4 Bft)
08.11.2014 16:02 13,0 C 10,6 C 73 % 1009,7 hPa 0,0 l/m 0 min 0 min 43 W/m 20,9 km/h (4 Bft)
08.11.2014 16:04 12,9 C 10,6 C 73 % 1009,7 hPa 0,0 l/m 0 min 0 min 42 W/m 23,0 km/h (4 Bft)
08.11.2014 16:06 12,9 C 10,6 C 74 % 1009,7 hPa 0,0 l/m 0 min 0 min 39 W/m 18,8 km/h (3 Bft)
08.11.2014 16:08 12,9 C 10,6 C 74 % 1009,7 hPa 0,0 l/m 0 min 0 min 39 W/m 16,7 km/h (3 Bft)
08.11.2014 16:10 12,8 C 10,6 C 74 % 1009,7 hPa 0,0 l/m 0 min 0 min 39 W/m 18,8 km/h (3 Bft)
08.11.2014 16:12 12,8 C 10,0 C 74 % 1009,8 hPa 0,0 l/m 0 min 0 min 38 W/m 18,8 km/h (3 Bft)
08.11.2014 16:14 12,7 C 10,6 C 74 % 1009,7 hPa 0,0 l/m 0 min 0 min 33 W/m 18,8 km/h (3 Bft)
08.11.2014 16:16 12,7 C 10,0 C 74 % 1009,7 hPa 0,0 l/m 0 min 0 min 31 W/m 23,0 km/h (4 Bft)
08.11.2014 16:18 12,6 C 10,0 C 74 % 1009,7 hPa 0,0 l/m 0 min 0 min 28 W/m 20,9 km/h (4 Bft)
08.11.2014 16:20 12,6 C 10,0 C 75 % 1009,8 hPa 0,0 l/m 0 min 0 min 26 W/m 20,9 km/h (4 Bft)
08.11.2014 16:22 12,5 C 10,0 C 75 % 1009,8 hPa 0,0 l/m 0 min 0 min 25 W/m 20,9 km/h (4 Bft)
08.11.2014 16:24 12,4 C 10,0 C 75 % 1009,7 hPa 0,0 l/m 0 min 0 min 21 W/m 33,5 km/h (5 Bft)
08.11.2014 16:26 12,4 C 10,0 C 75 % 1009,7 hPa 0,0 l/m 0 min 0 min 21 W/m 27,2 km/h (4 Bft)
08.11.2014 16:28 12,4 C 10,0 C 75 % 1009,8 hPa 0,0 l/m 0 min 0 min 21 W/m 23,0 km/h (4 Bft)
08.11.2014 16:30 12,3 C 10,0 C 75 % 1009,8 hPa 0,0 l/m 0 min 0 min 19 W/m 16,7 km/h (3 Bft)
08.11.2014 16:32 12,3 C 10,0 C 75 % 1009,8 hPa 0,0 l/m 0 min 0 min 19 W/m 20,9 km/h (4 Bft)
08.11.2014 16:34 12,2 C 10,0 C 75 % 1009,8 hPa 0,0 l/m 0 min 0 min 18 W/m 20,9 km/h (4 Bft)
08.11.2014 16:36 12,2 C 9,4 C 76 % 1009,8 hPa 0,0 l/m 0 min 0 min 16 W/m 18,8 km/h (3 Bft)
08.11.2014 16:38 12,1 C 9,4 C 76 % 1009,8 hPa 0,0 l/m 2 min 0 min 15 W/m 14,6 km/h (3 Bft)
08.11.2014 16:40 12,1 C 9,4 C 76 % 1009,8 hPa 0,0 l/m 2 min 0 min 14 W/m 20,9 km/h (4 Bft)
08.11.2014 16:42 12,1 C 9,4 C 76 % 1009,7 hPa 0,0 l/m 0 min 0 min 12 W/m 23,0 km/h (4 Bft)
08.11.2014 16:44 12,0 C 9,4 C 76 % 1009,7 hPa 0,0 l/m 0 min 0 min 11 W/m 14,6 km/h (3 Bft)
08.11.2014 16:46 11,9 C 9,4 C 76 % 1009,8 hPa 0,0 l/m 0 min 0 min 10 W/m 16,7 km/h (3 Bft)
08.11.2014 16:48 11,9 C 9,4 C 76 % 1009,8 hPa 0,0 l/m 0 min 0 min 9 W/m 18,8 km/h (3 Bft)
08.11.2014 16:50 11,9 C 9,4 C 77 % 1009,7 hPa 0,0 l/m 0 min 0 min 7 W/m 16,7 km/h (3 Bft)
08.11.2014 16:52 11,8 C 9,4 C 77 % 1009,8 hPa 0,0 l/m 0 min 0 min 6 W/m 20,9 km/h (4 Bft)
08.11.2014 16:54 11,8 C 9,4 C 77 % 1009,7 hPa 0,0 l/m 0 min 0 min 5 W/m 20,9 km/h (4 Bft)
08.11.2014 16:56 11,8 C 9,4 C 77 % 1009,7 hPa 0,0 l/m 0 min 0 min 4 W/m 20,9 km/h (4 Bft)
08.11.2014 16:58 11,7 C 9,4 C 77 % 1009,8 hPa 0,0 l/m 0 min 0 min 0 W/m 27,2 km/h (4 Bft)
08.11.2014 17:00 11,7 C 9,4 C 77 % 1009,8 hPa 0,0 l/m 0 min 0 min 0 W/m 20,9 km/h (4 Bft)
08.11.2014 17:02 11,7 C 9,4 C 77 % 1009,7 hPa 0,0 l/m 0 min 0 min 0 W/m 20,9 km/h (4 Bft)
08.11.2014 17:04 11,6 C 9,4 C 78 % 1009,8 hPa 0,0 l/m 0 min 0 min 0 W/m 16,7 km/h (3 Bft)
08.11.2014 17:06 11,6 C 9,4 C 78 % 1009,7 hPa 0,0 l/m 0 min 0 min 0 W/m 18,8 km/h (3 Bft)
08.11.2014 17:08 11,6 C 9,4 C 78 % 1009,7 hPa 0,0 l/m 0 min 0 min 0 W/m 14,6 km/h (3 Bft)
08.11.2014 17:10 11,5 C 9,4 C 78 % 1009,8 hPa 0,0 l/m 0 min 0 min 0 W/m 18,8 km/h (3 Bft)
08.11.2014 17:12 11,4 C 8,9 C 78 % 1009,7 hPa 0,0 l/m 0 min 0 min 0 W/m 14,6 km/h (3 Bft)
08.11.2014 17:14 11,4 C 8,9 C 78 % 1009,8 hPa 0,0 l/m 0 min 0 min 0 W/m 23,0 km/h (4 Bft)
08.11.2014 17:16 11,4 C 8,9 C 78 % 1009,8 hPa 0,0 l/m 0 min 0 min 0 W/m 20,9 km/h (4 Bft)
08.11.2014 17:18 11,3 C 8,9 C 78 % 1009,8 hPa 0,0 l/m 0 min 0 min 0 W/m 23,0 km/h (4 Bft)
08.11.2014 17:20 11,3 C 8,9 C 79 % 1009,7 hPa 0,0 l/m 0 min 0 min 0 W/m 20,9 km/h (4 Bft)
08.11.2014 17:22 11,3 C 8,9 C 79 % 1009,7 hPa 0,0 l/m 0 min 0 min 0 W/m 20,9 km/h (4 Bft)
08.11.2014 17:24 11,2 C 8,9 C 79 % 1009,7 hPa 0,0 l/m 0 min 0 min 0 W/m 20,9 km/h (4 Bft)
08.11.2014 17:26 11,2 C 8,9 C 79 % 1009,7 hPa 0,0 l/m 0 min 0 min 0 W/m 18,8 km/h (3 Bft)
08.11.2014 17:28 11,2 C 8,9 C 79 % 1009,7 hPa 0,0 l/m 0 min 0 min 0 W/m 20,9 km/h (4 Bft)
08.11.2014 17:30 11,1 C 8,9 C 79 % 1009,8 hPa 0,0 l/m 0 min 0 min 0 W/m 23,0 km/h (4 Bft)
08.11.2014 17:32 11,1 C 8,9 C 79 % 1009,8 hPa 0,0 l/m 0 min 0 min 0 W/m 18,8 km/h (3 Bft)
08.11.2014 17:34 11,1 C 8,9 C 79 % 1009,6 hPa 0,0 l/m 0 min 0 min 0 W/m 18,8 km/h (3 Bft)
08.11.2014 17:36 11,1 C 8,9 C 79 % 1009,7 hPa 0,0 l/m 0 min 0 min 0 W/m 20,9 km/h (4 Bft)
08.11.2014 17:38 11,0 C 8,9 C 79 % 1009,7 hPa 0,0 l/m 0 min 0 min 0 W/m 16,7 km/h (3 Bft)
08.11.2014 17:40 11,0 C 8,9 C 79 % 1009,7 hPa 0,0 l/m 0 min 0 min 0 W/m 14,6 km/h (3 Bft)
08.11.2014 17:42 10,9 C 8,9 C 80 % 1009,7 hPa 0,0 l/m 0 min 0 min 0 W/m 23,0 km/h (4 Bft)
08.11.2014 17:44 10,9 C 8,9 C 80 % 1009,7 hPa 0,0 l/m 0 min 0 min 0 W/m 14,6 km/h (3 Bft)
08.11.2014 17:46 10,9 C 8,9 C 80 % 1009,8 hPa 0,0 l/m 0 min 0 min 0 W/m 20,9 km/h (4 Bft)
08.11.2014 17:48 10,8 C 8,9 C 80 % 1009,7 hPa 0,0 l/m 0 min 0 min 0 W/m 18,8 km/h (3 Bft)
08.11.2014 17:50 10,8 C 8,9 C 80 % 1009,8 hPa 0,0 l/m 0 min 0 min 0 W/m 16,7 km/h (3 Bft)
08.11.2014 17:52 10,8 C 8,9 C 80 % 1009,7 hPa 0,0 l/m 0 min 0 min 0 W/m 18,8 km/h (3 Bft)
08.11.2014 17:54 10,7 C 8,3 C 80 % 1009,7 hPa 0,0 l/m 0 min 0 min 0 W/m 16,7 km/h (3 Bft)
08.11.2014 17:56 10,7 C 8,3 C 80 % 1009,7 hPa 0,0 l/m 0 min 0 min 0 W/m 18,8 km/h (3 Bft)
08.11.2014 17:58 10,7 C 8,3 C 80 % 1009,7 hPa 0,0 l/m 0 min 0 min 0 W/m 14,6 km/h (3 Bft)
08.11.2014 18:00 10,7 C 8,3 C 81 % 1009,6 hPa 0,0 l/m 0 min 0 min 0 W/m 18,8 km/h (3 Bft)
08.11.2014 18:02 10,6 C 8,3 C 81 % 1009,6 hPa 0,0 l/m 0 min 0 min 0 W/m 14,6 km/h (3 Bft)
08.11.2014 18:05 10,6 C 8,3 C 81 % 1009,7 hPa 0,0 l/m 0 min 0 min 0 W/m 14,6 km/h (3 Bft)
08.11.2014 18:08 10,6 C 8,3 C 81 % 1009,7 hPa 0,0 l/m 0 min 0 min 0 W/m 23,0 km/h (4 Bft)
08.11.2014 18:10 10,5 C 8,3 C 81 % 1009,8 hPa 0,0 l/m 0 min 0 min 0 W/m 18,8 km/h (3 Bft)
08.11.2014 18:12 10,5 C 8,3 C 81 % 1009,7 hPa 0,0 l/m 0 min 0 min 0 W/m 20,9 km/h (4 Bft)
08.11.2014 18:14 10,5 C 8,3 C 81 % 1009,7 hPa 0,0 l/m 0 min 0 min 0 W/m 14,6 km/h (3 Bft)
08.11.2014 18:16 10,4 C 8,3 C 81 % 1009,7 hPa 0,0 l/m 0 min 0 min 0 W/m 14,6 km/h (3 Bft)
08.11.2014 18:18 10,4 C 8,3 C 81 % 1009,7 hPa 0,0 l/m 0 min 0 min 0 W/m 20,9 km/h (4 Bft)
08.11.2014 18:20 10,4 C 8,3 C 81 % 1009,7 hPa 0,0 l/m 0 min 0 min 0 W/m 16,7 km/h (3 Bft)
08.11.2014 18:22 10,4 C 8,3 C 81 % 1009,8 hPa 0,0 l/m 0 min 0 min 0 W/m 10,5 km/h (2 Bft)
08.11.2014 18:24 10,4 C 8,3 C 81 % 1009,7 hPa 0,0 l/m 0 min 0 min 0 W/m 12,6 km/h (3 Bft)
08.11.2014 18:26 10,4 C 8,3 C 81 % 1009,7 hPa 0,0 l/m 0 min 0 min 0 W/m 10,5 km/h (2 Bft)
08.11.2014 18:28 10,4 C 8,3 C 81 % 1009,7 hPa 0,0 l/m 0 min 0 min 0 W/m 12,6 km/h (3 Bft)
08.11.2014 18:30 10,3 C 7,8 C 81 % 1009,7 hPa 0,0 l/m 0 min 0 min 0 W/m 8,4 km/h (2 Bft)
08.11.2014 18:32 10,3 C 7,8 C 81 % 1009,7 hPa 0,0 l/m 0 min 0 min 0 W/m 12,6 km/h (3 Bft)
08.11.2014 18:34 10,3 C 7,8 C 81 % 1009,7 hPa 0,0 l/m 0 min 0 min 0 W/m 8,4 km/h (2 Bft)
08.11.2014 18:36 10,3 C 7,8 C 81 % 1009,7 hPa 0,0 l/m 0 min 0 min 0 W/m 10,5 km/h (2 Bft)
08.11.2014 18:38 10,2 C 7,8 C 81 % 1009,7 hPa 0,0 l/m 0 min 0 min 0 W/m 12,6 km/h (3 Bft)
08.11.2014 18:40 10,2 C 7,2 C 81 % 1009,7 hPa 0,0 l/m 0 min 0 min 0 W/m 10,5 km/h (2 Bft)
08.11.2014 18:42 10,2 C 7,8 C 81 % 1009,7 hPa 0,0 l/m 0 min 0 min 0 W/m 12,6 km/h (3 Bft)
08.11.2014 18:44 10,1 C 7,8 C 81 % 1009,6 hPa 0,0 l/m 0 min 0 min 0 W/m 12,6 km/h (3 Bft)
08.11.2014 18:46 10,1 C 7,8 C 82 % 1009,6 hPa 0,0 l/m 0 min 0 min 0 W/m 10,5 km/h (2 Bft)
08.11.2014 18:48 10,1 C 7,2 C 82 % 1009,6 hPa 0,0 l/m 0 min 0 min 0 W/m 8,4 km/h (2 Bft)
08.11.2014 18:50 10,0 C 7,2 C 82 % 1009,6 hPa 0,0 l/m 0 min 0 min 0 W/m 10,5 km/h (2 Bft)
08.11.2014 18:52 10,0 C 7,8 C 82 % 1009,6 hPa 0,0 l/m 0 min 0 min 0 W/m 12,6 km/h (3 Bft)
08.11.2014 18:54 10,0 C 7,8 C 82 % 1009,5 hPa 0,0 l/m 0 min 0 min 0 W/m 10,5 km/h (2 Bft)
08.11.2014 18:56 9,9 C 7,2 C 82 % 1009,6 hPa 0,0 l/m 0 min 0 min 0 W/m 10,5 km/h (2 Bft)
08.11.2014 18:58 9,9 C 7,2 C 82 % 1009,5 hPa 0,0 l/m 0 min 0 min 0 W/m 10,5 km/h (2 Bft)
08.11.2014 19:00 9,9 C 7,2 C 82 % 1009,5 hPa 0,0 l/m 0 min 0 min 0 W/m 8,4 km/h (2 Bft)
08.11.2014 19:02 9,9 C 7,2 C 82 % 1009,5 hPa 0,0 l/m 0 min 0 min 0 W/m 8,4 km/h (2 Bft)
08.11.2014 19:04 9,8 C 7,2 C 82 % 1009,5 hPa 0,0 l/m 0 min 0 min 0 W/m 10,5 km/h (2 Bft)
08.11.2014 19:06 9,8 C 7,2 C 82 % 1009,5 hPa 0,0 l/m 0 min 0 min 0 W/m 10,5 km/h (2 Bft)
08.11.2014 19:08 9,8 C 7,2 C 82 % 1009,6 hPa 0,0 l/m 0 min 0 min 0 W/m 8,4 km/h (2 Bft)
08.11.2014 19:10 9,7 C 7,2 C 82 % 1009,5 hPa 0,0 l/m 0 min 0 min 0 W/m 10,5 km/h (2 Bft)
08.11.2014 19:12 9,7 C 7,2 C 83 % 1009,6 hPa 0,0 l/m 0 min 0 min 0 W/m 8,4 km/h (2 Bft)
08.11.2014 19:14 9,7 C 7,2 C 83 % 1009,6 hPa 0,0 l/m 0 min 0 min 0 W/m 8,4 km/h (2 Bft)
08.11.2014 19:16 9,7 C 7,2 C 83 % 1009,6 hPa 0,0 l/m 0 min 0 min 0 W/m 8,4 km/h (2 Bft)
08.11.2014 19:18 9,6 C 7,2 C 83 % 1009,6 hPa 0,0 l/m 0 min 0 min 0 W/m 8,4 km/h (2 Bft)
08.11.2014 19:20 9,6 C 7,2 C 83 % 1009,6 hPa 0,0 l/m 0 min 0 min 0 W/m 10,5 km/h (2 Bft)
08.11.2014 19:22 9,6 C 7,2 C 83 % 1009,5 hPa 0,0 l/m 0 min 0 min 0 W/m 10,5 km/h (2 Bft)
08.11.2014 19:24 9,6 C 7,2 C 83 % 1009,5 hPa 0,0 l/m 0 min 0 min 0 W/m 10,5 km/h (2 Bft)
08.11.2014 19:26 9,6 C 7,2 C 83 % 1009,6 hPa 0,0 l/m 0 min 0 min 0 W/m 8,4 km/h (2 Bft)
08.11.2014 19:28 9,5 C 7,2 C 83 % 1009,6 hPa 0,0 l/m 0 min 0 min 0 W/m 10,5 km/h (2 Bft)
08.11.2014 19:30 9,4 C 7,2 C 83 % 1009,5 hPa 0,0 l/m 0 min 0 min 0 W/m 10,5 km/h (2 Bft)
08.11.2014 19:32 9,4 C 7,2 C 84 % 1009,5 hPa 0,0 l/m 0 min 0 min 0 W/m 8,4 km/h (2 Bft)
08.11.2014 19:34 9,4 C 6,7 C 84 % 1009,6 hPa 0,0 l/m 0 min 0 min 0 W/m 6,3 km/h (2 Bft)
08.11.2014 19:36 9,4 C 6,7 C 84 % 1009,5 hPa 0,0 l/m 0 min 0 min 0 W/m 10,5 km/h (2 Bft)
08.11.2014 19:38 9,3 C 6,7 C 84 % 1009,6 hPa 0,0 l/m 0 min 0 min 0 W/m 8,4 km/h (2 Bft)
08.11.2014 19:40 9,3 C 6,7 C 84 % 1009,6 hPa 0,0 l/m 0 min 0 min 0 W/m 6,3 km/h (2 Bft)
08.11.2014 19:42 9,3 C 6,7 C 84 % 1009,5 hPa 0,0 l/m 0 min 0 min 0 W/m 8,4 km/h (2 Bft)
08.11.2014 19:44 9,2 C 6,7 C 84 % 1009,5 hPa 0,0 l/m 0 min 0 min 0 W/m 12,6 km/h (3 Bft)
08.11.2014 19:46 9,2 C 6,7 C 84 % 1009,5 hPa 0,0 l/m 0 min 0 min 0 W/m 16,7 km/h (3 Bft)
08.11.2014 19:48 9,2 C 6,7 C 85 % 1009,5 hPa 0,0 l/m 0 min 0 min 0 W/m 12,6 km/h (3 Bft)
08.11.2014 19:50 9,1 C 7,2 C 85 % 1009,5 hPa 0,0 l/m 0 min 0 min 0 W/m 12,6 km/h (3 Bft)
08.11.2014 19:52 9,1 C 7,2 C 85 % 1009,7 hPa 0,0 l/m 0 min 0 min 0 W/m 8,4 km/h (2 Bft)
08.11.2014 19:54 9,1 C 6,7 C 85 % 1009,7 hPa 0,0 l/m 0 min 0 min 0 W/m 10,5 km/h (2 Bft)
08.11.2014 19:56 9,1 C 6,7 C 85 % 1009,5 hPa 0,0 l/m 0 min 0 min 0 W/m 12,6 km/h (3 Bft)
08.11.2014 19:58 9,0 C 6,7 C 85 % 1009,6 hPa 0,0 l/m 0 min 0 min 0 W/m 12,6 km/h (3 Bft)
08.11.2014 20:00 9,0 C 7,2 C 86 % 1009,6 hPa 0,0 l/m 0 min 0 min 0 W/m 16,7 km/h (3 Bft)
08.11.2014 20:02 8,9 C 7,2 C 86 % 1009,6 hPa 0,0 l/m 0 min 0 min 0 W/m 14,6 km/h (3 Bft)
08.11.2014 20:04 8,9 C 7,2 C 86 % 1009,6 hPa 0,0 l/m 0 min 0 min 0 W/m 12,6 km/h (3 Bft)
08.11.2014 20:06 8,9 C 7,2 C 86 % 1009,6 hPa 0,0 l/m 0 min 0 min 0 W/m 12,6 km/h (3 Bft)
08.11.2014 20:08 8,9 C 7,2 C 86 % 1009,6 hPa 0,0 l/m 0 min 0 min 0 W/m 14,6 km/h (3 Bft)
08.11.2014 20:10 8,9 C 7,2 C 86 % 1009,6 hPa 0,0 l/m 0 min 0 min 0 W/m 14,6 km/h (3 Bft)
08.11.2014 20:12 8,9 C 7,2 C 86 % 1009,5 hPa 0,0 l/m 0 min 0 min 0 W/m 14,6 km/h (3 Bft)
08.11.2014 20:14 8,8 C 7,2 C 86 % 1009,5 hPa 0,0 l/m 0 min 0 min 0 W/m 18,8 km/h (3 Bft)
08.11.2014 20:16 8,8 C 7,2 C 87 % 1009,5 hPa 0,0 l/m 0 min 0 min 0 W/m 14,6 km/h (3 Bft)
08.11.2014 20:18 8,8 C 7,2 C 87 % 1009,4 hPa 0,0 l/m 0 min 0 min 0 W/m 12,6 km/h (3 Bft)
08.11.2014 20:20 8,8 C 7,2 C 87 % 1009,4 hPa 0,0 l/m 0 min 0 min 0 W/m 18,8 km/h (3 Bft)
08.11.2014 20:22 8,8 C 7,2 C 87 % 1009,4 hPa 0,0 l/m 0 min 0 min 0 W/m 16,7 km/h (3 Bft)
08.11.2014 20:24 8,8 C 7,2 C 87 % 1009,4 hPa 0,0 l/m 0 min 0 min 0 W/m 12,6 km/h (3 Bft)
08.11.2014 20:26 8,8 C 7,2 C 87 % 1009,4 hPa 0,0 l/m 0 min 0 min 0 W/m 12,6 km/h (3 Bft)
08.11.2014 20:28 8,8 C 7,2 C 87 % 1009,4 hPa 0,0 l/m 0 min 0 min 0 W/m 16,7 km/h (3 Bft)
08.11.2014 20:30 8,8 C 7,2 C 87 % 1009,4 hPa 0,0 l/m 0 min 0 min 0 W/m 12,6 km/h (3 Bft)
08.11.2014 20:32 8,8 C 7,2 C 87 % 1009,4 hPa 0,0 l/m 0 min 0 min 0 W/m 14,6 km/h (3 Bft)
08.11.2014 20:34 8,7 C 7,2 C 87 % 1009,3 hPa 0,0 l/m 0 min 0 min 0 W/m 14,6 km/h (3 Bft)
08.11.2014 20:36 8,7 C 7,2 C 88 % 1009,3 hPa 0,0 l/m 0 min 0 min 0 W/m 14,6 km/h (3 Bft)
08.11.2014 20:38 8,7 C 7,2 C 88 % 1009,3 hPa 0,0 l/m 0 min 0 min 0 W/m 12,6 km/h (3 Bft)
08.11.2014 20:40 8,7 C 7,2 C 88 % 1009,4 hPa 0,0 l/m 0 min 0 min 0 W/m 20,9 km/h (4 Bft)
08.11.2014 20:42 8,7 C 7,2 C 88 % 1009,4 hPa 0,0 l/m 0 min 0 min 0 W/m 16,7 km/h (3 Bft)
08.11.2014 20:44 8,7 C 7,2 C 88 % 1009,4 hPa 0,0 l/m 0 min 0 min 0 W/m 18,8 km/h (3 Bft)
08.11.2014 20:46 8,7 C 7,2 C 88 % 1009,4 hPa 0,0 l/m 0 min 0 min 0 W/m 16,7 km/h (3 Bft)
08.11.2014 20:48 8,7 C 7,2 C 88 % 1009,4 hPa 0,0 l/m 0 min 0 min 0 W/m 16,7 km/h (3 Bft)
08.11.2014 20:50 8,7 C 7,2 C 88 % 1009,4 hPa 0,0 l/m 0 min 0 min 0 W/m 12,6 km/h (3 Bft)
08.11.2014 20:52 8,7 C 7,2 C 88 % 1009,4 hPa 0,0 l/m 0 min 0 min 0 W/m 18,8 km/h (3 Bft)
08.11.2014 20:54 8,7 C 7,2 C 88 % 1009,4 hPa 0,0 l/m 0 min 0 min 0 W/m 18,8 km/h (3 Bft)
08.11.2014 20:56 8,7 C 7,2 C 88 % 1009,5 hPa 0,0 l/m 0 min 0 min 0 W/m 14,6 km/h (3 Bft)
08.11.2014 20:58 8,7 C 7,2 C 88 % 1009,5 hPa 0,0 l/m 0 min 0 min 0 W/m 20,9 km/h (4 Bft)
08.11.2014 21:00 8,7 C 7,2 C 88 % 1009,5 hPa 0,0 l/m 0 min 0 min 0 W/m 16,7 km/h (3 Bft)
08.11.2014 21:02 8,7 C 7,2 C 88 % 1009,4 hPa 0,0 l/m 0 min 0 min 0 W/m 18,8 km/h (3 Bft)
08.11.2014 21:04 8,7 C 7,2 C 88 % 1009,4 hPa 0,0 l/m 0 min 0 min 0 W/m 16,7 km/h (3 Bft)
08.11.2014 21:06 8,7 C 7,2 C 89 % 1009,4 hPa 0,0 l/m 0 min 0 min 0 W/m 14,6 km/h (3 Bft)
08.11.2014 21:08 8,6 C 7,2 C 89 % 1009,4 hPa 0,0 l/m 0 min 0 min 0 W/m 20,9 km/h (4 Bft)
08.11.2014 21:10 8,6 C 7,2 C 89 % 1009,4 hPa 0,0 l/m 0 min 0 min 0 W/m 14,6 km/h (3 Bft)
08.11.2014 21:12 8,6 C 7,2 C 89 % 1009,4 hPa 0,0 l/m 0 min 0 min 0 W/m 18,8 km/h (3 Bft)
08.11.2014 21:14 8,6 C 7,2 C 89 % 1009,4 hPa 0,0 l/m 0 min 0 min 0 W/m 10,5 km/h (2 Bft)
08.11.2014 21:16 8,6 C 7,2 C 89 % 1009,4 hPa 0,0 l/m 0 min 0 min 0 W/m 12,6 km/h (3 Bft)
08.11.2014 21:18 8,6 C 7,2 C 89 % 1009,5 hPa 0,0 l/m 0 min 0 min 0 W/m 14,6 km/h (3 Bft)
08.11.2014 21:20 8,6 C 7,2 C 89 % 1009,4 hPa 0,0 l/m 0 min 0 min 0 W/m 14,6 km/h (3 Bft)
08.11.2014 21:22 8,6 C 7,2 C 89 % 1009,4 hPa 0,0 l/m 0 min 0 min 0 W/m 14,6 km/h (3 Bft)
08.11.2014 21:24 8,6 C 7,2 C 89 % 1009,4 hPa 0,0 l/m 0 min 0 min 0 W/m 14,6 km/h (3 Bft)
08.11.2014 21:26 8,6 C 7,2 C 89 % 1009,4 hPa 0,0 l/m 0 min 0 min 0 W/m 12,6 km/h (3 Bft)
08.11.2014 21:28 8,6 C 7,2 C 89 % 1009,4 hPa 0,0 l/m 0 min 0 min 0 W/m 16,7 km/h (3 Bft)
08.11.2014 21:30 8,6 C 7,2 C 89 % 1009,4 hPa 0,0 l/m 0 min 0 min 0 W/m 10,5 km/h (2 Bft)
08.11.2014 21:32 8,6 C 6,7 C 89 % 1009,4 hPa 0,0 l/m 0 min 0 min 0 W/m 12,6 km/h (3 Bft)
08.11.2014 21:34 8,6 C 6,7 C 89 % 1009,4 hPa 0,0 l/m 0 min 0 min 0 W/m 12,6 km/h (3 Bft)
08.11.2014 21:36 8,6 C 6,7 C 89 % 1009,4 hPa 0,0 l/m 0 min 0 min 0 W/m 14,6 km/h (3 Bft)
08.11.2014 21:38 8,6 C 6,7 C 89 % 1009,3 hPa 0,0 l/m 0 min 0 min 0 W/m 16,7 km/h (3 Bft)
08.11.2014 21:40 8,6 C 6,7 C 89 % 1009,3 hPa 0,0 l/m 0 min 0 min 0 W/m 16,7 km/h (3 Bft)
08.11.2014 21:42 8,6 C 6,7 C 89 % 1009,3 hPa 0,0 l/m 0 min 0 min 0 W/m 14,6 km/h (3 Bft)
08.11.2014 21:44 8,6 C 6,7 C 89 % 1009,4 hPa 0,0 l/m 0 min 0 min 0 W/m 18,8 km/h (3 Bft)
08.11.2014 21:46 8,5 C 6,7 C 89 % 1009,4 hPa 0,0 l/m 0 min 0 min 0 W/m 16,7 km/h (3 Bft)
08.11.2014 21:48 8,5 C 6,7 C 90 % 1009,4 hPa 0,0 l/m 0 min 0 min 0 W/m 14,6 km/h (3 Bft)
08.11.2014 21:50 8,5 C 6,7 C 90 % 1009,4 hPa 0,0 l/m 0 min 0 min 0 W/m 14,6 km/h (3 Bft)
08.11.2014 21:52 8,4 C 6,7 C 90 % 1009,4 hPa 0,0 l/m 0 min 0 min 0 W/m 12,6 km/h (3 Bft)
08.11.2014 21:54 8,4 C 6,7 C 90 % 1009,3 hPa 0,0 l/m 0 min 0 min 0 W/m 12,6 km/h (3 Bft)
08.11.2014 21:56 8,4 C 6,7 C 90 % 1009,3 hPa 0,0 l/m 0 min 0 min 0 W/m 12,6 km/h (3 Bft)
08.11.2014 21:58 8,4 C 6,7 C 90 % 1009,3 hPa 0,0 l/m 0 min 0 min 0 W/m 14,6 km/h (3 Bft)
08.11.2014 22:00 8,4 C 6,7 C 90 % 1009,3 hPa 0,0 l/m 0 min 0 min 0 W/m 14,6 km/h (3 Bft)
08.11.2014 22:02 8,4 C 6,7 C 90 % 1009,2 hPa 0,0 l/m 0 min 0 min 0 W/m 16,7 km/h (3 Bft)
08.11.2014 22:04 8,3 C 6,7 C 90 % 1009,2 hPa 0,0 l/m 0 min 0 min 0 W/m 16,7 km/h (3 Bft)
08.11.2014 22:06 8,3 C 6,7 C 90 % 1009,2 hPa 0,0 l/m 0 min 0 min 0 W/m 14,6 km/h (3 Bft)
08.11.2014 22:08 8,3 C 6,7 C 90 % 1009,1 hPa 0,0 l/m 0 min 0 min 0 W/m 14,6 km/h (3 Bft)
08.11.2014 22:10 8,3 C 6,7 C 90 % 1009,2 hPa 0,0 l/m 0 min 0 min 0 W/m 14,6 km/h (3 Bft)
08.11.2014 22:12 8,3 C 6,7 C 90 % 1009,1 hPa 0,0 l/m 0 min 0 min 0 W/m 14,6 km/h (3 Bft)
08.11.2014 22:14 8,2 C 6,7 C 90 % 1009,2 hPa 0,0 l/m 0 min 0 min 0 W/m 14,6 km/h (3 Bft)
08.11.2014 22:16 8,2 C 6,7 C 90 % 1009,3 hPa 0,0 l/m 0 min 0 min 0 W/m 14,6 km/h (3 Bft)
08.11.2014 22:18 8,2 C 6,7 C 90 % 1009,2 hPa 0,0 l/m 0 min 0 min 0 W/m 10,5 km/h (2 Bft)
08.11.2014 22:20 8,2 C 6,1 C 90 % 1009,2 hPa 0,0 l/m 0 min 0 min 0 W/m 10,5 km/h (2 Bft)
08.11.2014 22:22 8,2 C 6,1 C 90 % 1009,2 hPa 0,0 l/m 0 min 0 min 0 W/m 14,6 km/h (3 Bft)
08.11.2014 22:24 8,1 C 6,1 C 90 % 1009,2 hPa 0,0 l/m 0 min 0 min 0 W/m 10,5 km/h (2 Bft)
08.11.2014 22:26 8,1 C 6,1 C 90 % 1009,2 hPa 0,0 l/m 0 min 0 min 0 W/m 10,5 km/h (2 Bft)
08.11.2014 22:28 8,1 C 6,1 C 90 % 1009,2 hPa 0,0 l/m 0 min 0 min 0 W/m 14,6 km/h (3 Bft)
08.11.2014 22:30 8,1 C 6,1 C 90 % 1009,2 hPa 0,0 l/m 0 min 0 min 0 W/m 14,6 km/h (3 Bft)
08.11.2014 22:32 8,1 C 6,1 C 90 % 1009,1 hPa 0,0 l/m 0 min 0 min 0 W/m 16,7 km/h (3 Bft)
08.11.2014 22:34 8,0 C 6,1 C 91 % 1009,2 hPa 0,0 l/m 0 min 0 min 0 W/m 14,6 km/h (3 Bft)
08.11.2014 22:36 8,0 C 6,1 C 90 % 1009,2 hPa 0,0 l/m 0 min 0 min 0 W/m 18,8 km/h (3 Bft)
08.11.2014 22:38 8,0 C 6,1 C 91 % 1009,1 hPa 0,0 l/m 0 min 0 min 0 W/m 16,7 km/h (3 Bft)
08.11.2014 22:40 7,9 C 6,1 C 91 % 1009,2 hPa 0,0 l/m 0 min 0 min 0 W/m 12,6 km/h (3 Bft)
08.11.2014 22:42 7,9 C 6,1 C 91 % 1009,2 hPa 0,0 l/m 0 min 0 min 0 W/m 16,7 km/h (3 Bft)
08.11.2014 22:44 7,9 C 6,1 C 91 % 1009,2 hPa 0,0 l/m 0 min 0 min 0 W/m 14,6 km/h (3 Bft)
08.11.2014 22:46 7,9 C 6,1 C 91 % 1009,2 hPa 0,0 l/m 0 min 0 min 0 W/m 10,5 km/h (2 Bft)
08.11.2014 22:48 7,9 C 6,1 C 91 % 1009,1 hPa 0,0 l/m 0 min 0 min 0 W/m 12,6 km/h (3 Bft)
08.11.2014 22:50 7,9 C 6,1 C 91 % 1009,1 hPa 0,0 l/m 0 min 0 min 0 W/m 16,7 km/h (3 Bft)
08.11.2014 22:52 7,9 C 6,1 C 91 % 1009,1 hPa 0,0 l/m 0 min 0 min 0 W/m 18,8 km/h (3 Bft)
08.11.2014 22:54 7,9 C 6,1 C 91 % 1009,1 hPa 0,0 l/m 0 min 0 min 0 W/m 16,7 km/h (3 Bft)
08.11.2014 22:56 7,9 C 6,1 C 91 % 1009,1 hPa 0,0 l/m 0 min 0 min 0 W/m 14,6 km/h (3 Bft)
08.11.2014 22:58 7,8 C 6,1 C 91 % 1009,1 hPa 0,0 l/m 0 min 0 min 0 W/m 14,6 km/h (3 Bft)
08.11.2014 23:00 7,8 C 6,1 C 91 % 1009,1 hPa 0,0 l/m 0 min 0 min 0 W/m 16,7 km/h (3 Bft)
08.11.2014 23:02 7,8 C 6,1 C 91 % 1009,0 hPa 0,0 l/m 0 min 0 min 0 W/m 14,6 km/h (3 Bft)
08.11.2014 23:04 7,8 C 6,1 C 91 % 1009,0 hPa 0,0 l/m 0 min 0 min 0 W/m 14,6 km/h (3 Bft)
08.11.2014 23:06 7,8 C 6,1 C 91 % 1009,0 hPa 0,0 l/m 0 min 0 min 0 W/m 14,6 km/h (3 Bft)
08.11.2014 23:08 7,8 C 6,1 C 91 % 1009,0 hPa 0,0 l/m 0 min 0 min 0 W/m 18,8 km/h (3 Bft)
08.11.2014 23:10 7,8 C 6,1 C 91 % 1009,0 hPa 0,0 l/m 0 min 0 min 0 W/m 14,6 km/h (3 Bft)
08.11.2014 23:12 7,8 C 6,1 C 92 % 1009,0 hPa 0,0 l/m 0 min 0 min 0 W/m 14,6 km/h (3 Bft)
08.11.2014 23:14 7,8 C 6,1 C 92 % 1009,0 hPa 0,0 l/m 0 min 0 min 0 W/m 20,9 km/h (4 Bft)
08.11.2014 23:16 7,8 C 6,1 C 92 % 1009,0 hPa 0,0 l/m 0 min 0 min 0 W/m 16,7 km/h (3 Bft)
08.11.2014 23:18 7,8 C 6,1 C 92 % 1009,0 hPa 0,0 l/m 0 min 0 min 0 W/m 16,7 km/h (3 Bft)
08.11.2014 23:20 7,7 C 6,1 C 92 % 1009,0 hPa 0,0 l/m 0 min 0 min 0 W/m 20,9 km/h (4 Bft)
08.11.2014 23:22 7,7 C 6,1 C 92 % 1009,0 hPa 0,0 l/m 0 min 0 min 0 W/m 14,6 km/h (3 Bft)
08.11.2014 23:24 7,7 C 6,1 C 92 % 1009,0 hPa 0,0 l/m 0 min 0 min 0 W/m 18,8 km/h (3 Bft)
08.11.2014 23:26 7,7 C 6,1 C 92 % 1009,0 hPa 0,0 l/m 0 min 0 min 0 W/m 18,8 km/h (3 Bft)
08.11.2014 23:28 7,7 C 6,1 C 92 % 1008,9 hPa 0,0 l/m 0 min 0 min 0 W/m 16,7 km/h (3 Bft)
08.11.2014 23:30 7,7 C 6,1 C 92 % 1008,9 hPa 0,0 l/m 0 min 0 min 0 W/m 16,7 km/h (3 Bft)
08.11.2014 23:32 7,7 C 6,1 C 92 % 1009,0 hPa 0,0 l/m 0 min 0 min 0 W/m 16,7 km/h (3 Bft)
08.11.2014 23:34 7,7 C 6,1 C 92 % 1009,0 hPa 0,0 l/m 0 min 0 min 0 W/m 16,7 km/h (3 Bft)
08.11.2014 23:36 7,7 C 6,1 C 92 % 1009,0 hPa 0,0 l/m 0 min 0 min 0 W/m 20,9 km/h (4 Bft)
08.11.2014 23:38 7,7 C 6,1 C 92 % 1009,0 hPa 0,0 l/m 0 min 0 min 0 W/m 18,8 km/h (3 Bft)
08.11.2014 23:40 7,7 C 6,1 C 92 % 1009,0 hPa 0,0 l/m 0 min 0 min 0 W/m 23,0 km/h (4 Bft)
08.11.2014 23:42 7,6 C 6,1 C 92 % 1009,0 hPa 0,0 l/m 0 min 0 min 0 W/m 18,8 km/h (3 Bft)
08.11.2014 23:44 7,6 C 6,1 C 92 % 1008,8 hPa 0,0 l/m 0 min 0 min 0 W/m 12,6 km/h (3 Bft)
08.11.2014 23:46 7,6 C 6,1 C 92 % 1008,9 hPa 0,0 l/m 0 min 0 min 0 W/m 20,9 km/h (4 Bft)
08.11.2014 23:48 7,6 C 6,1 C 92 % 1008,8 hPa 0,0 l/m 0 min 0 min 0 W/m 16,7 km/h (3 Bft)
08.11.2014 23:50 7,6 C 6,1 C 92 % 1008,8 hPa 0,0 l/m 0 min 0 min 0 W/m 16,7 km/h (3 Bft)
08.11.2014 23:52 7,6 C 6,1 C 92 % 1008,8 hPa 0,0 l/m 0 min 0 min 0 W/m 16,7 km/h (3 Bft)
08.11.2014 23:54 7,6 C 6,1 C 93 % 1008,9 hPa 0,0 l/m 0 min 0 min 0 W/m 14,6 km/h (3 Bft)
08.11.2014 23:56 7,7 C 6,1 C 93 % 1008,9 hPa 0,0 l/m 0 min 0 min 0 W/m 23,0 km/h (4 Bft)
08.11.2014 23:58 7,7 C 6,1 C 93 % 1008,8 hPa 0,0 l/m 0 min 0 min 0 W/m 16,7 km/h (3 Bft)
_ Min-Zeit 00:14 02:34 13:56 00:00 - - - - 19:34
Minimum _ 6,7 C 4,4 C 67 % 1006,4 hPa - - - - 6,3 km/h (2 Bft)
_ Max-Zeit 13:28 13:42 03:12 11:26 00:00 07:56 00:00 12:26 14:38
Maximum _ 14,9 C 12,8 C 96 % 1010,9 hPa 0,0 l/m 2 min 0 min 371 W/m 43,9 km/h
S (6 Bft)
Durchschnitt _ 10,0 C 8,1 C 85 % 1009,2 hPa #0,0 l/m #7:24 h #0 min. 203 W/m 17,5 km/h (3 Bft)
© 2014 W. Hausmann